<?xml version="1.0" encoding="UTF-8"?>
<gpx version="1.1" creator="2bulu-scraper" xmlns="http://www.topografix.com/GPX/1/1">
  <metadata><name>乐山夹江大旗山小环线（绍林禅院）</name><desc>source: 2bulu.com trackId=85112010; exported 2026-09-01T16:23:56.142Z</desc>
    <bounds minlat="29.758034" minlon="103.42432" maxlat="29.770411" maxlon="103.438277"/>
    <link href="https://www.2bulu.com/track/t-LCCFHSLY60Pp%252FR2KBg5Tzw%253D%253D.htm"><text>2bulu 源页面</text></link>
  </metadata>
  <wpt lat="29.760743" lon="103.424514"><ele>1136</ele><name></name></wpt>
  <wpt lat="29.759229" lon="103.426177"><ele>1166</ele><name></name></wpt>
  <wpt lat="29.759422" lon="103.426479"><ele>1172</ele><name></name></wpt>
  <wpt lat="29.759787" lon="103.427281"><ele>1173</ele><name></name></wpt>
  <wpt lat="29.759748" lon="103.427634"><ele>1181</ele><name></name></wpt>
  <wpt lat="29.759688" lon="103.428548"><ele>1197</ele><name></name></wpt>
  <wpt lat="29.760082" lon="103.428902"><ele>1180</ele><name></name></wpt>
  <wpt lat="29.760279" lon="103.429524"><ele>1157</ele><name></name></wpt>
  <wpt lat="29.760449" lon="103.430501"><ele>1111</ele><name></name></wpt>
  <wpt lat="29.760898" lon="103.431234"><ele>1084</ele><name></name></wpt>
  <wpt lat="29.762184" lon="103.432481"><ele>1074</ele><name></name></wpt>
  <wpt lat="29.763674" lon="103.433314"><ele>1053</ele><name></name></wpt>
  <wpt lat="29.764456" lon="103.434111"><ele>1030</ele><name></name></wpt>
  <wpt lat="29.765256" lon="103.435165"><ele>1020</ele><name></name></wpt>
  <wpt lat="29.7664" lon="103.436214"><ele>1010</ele><name></name></wpt>
  <wpt lat="29.766944" lon="103.438205"><ele>998</ele><name></name></wpt>
  <wpt lat="29.767119" lon="103.43818"><ele>993</ele><name></name></wpt>
  <wpt lat="29.767122" lon="103.437957"><ele>996</ele><name></name></wpt>
  <wpt lat="29.767853" lon="103.438256"><ele>988</ele><name></name></wpt>
  <wpt lat="29.768827" lon="103.437881"><ele>966</ele><name></name></wpt>
  <wpt lat="29.769285" lon="103.437765"><ele>954</ele><name></name></wpt>
  <wpt lat="29.769584" lon="103.43772"><ele>945</ele><name></name></wpt>
  <wpt lat="29.770399" lon="103.43807"><ele>938</ele><name></name></wpt>
  <wpt lat="29.770168" lon="103.437301"><ele>939</ele><name></name></wpt>
  <wpt lat="29.769699" lon="103.436337"><ele>953</ele><name></name></wpt>
  <wpt lat="29.769701" lon="103.436319"><ele>954</ele><name></name></wpt>
  <wpt lat="29.770015" lon="103.436001"><ele>971</ele><name></name></wpt>
  <wpt lat="29.770015" lon="103.436001"><ele>971</ele><name></name></wpt>
  <wpt lat="29.770022" lon="103.435891"><ele>983</ele><name></name></wpt>
  <wpt lat="29.770035" lon="103.435455"><ele>1013</ele><name></name></wpt>
  <wpt lat="29.769958" lon="103.434884"><ele>1027</ele><name></name></wpt>
  <wpt lat="29.769882" lon="103.434073"><ele>1048</ele><name></name></wpt>
  <wpt lat="29.76988" lon="103.433907"><ele>1052</ele><name></name></wpt>
  <wpt lat="29.765845" lon="103.431637"><ele>1110</ele><name></name></wpt>
  <wpt lat="29.764422" lon="103.430203"><ele>1129</ele><name></name></wpt>
  <wpt lat="29.764736" lon="103.428379"><ele>1125</ele><name></name></wpt>
  <wpt lat="29.764815" lon="103.427281"><ele>1102</ele><name></name></wpt>
  <wpt lat="29.763603" lon="103.426743"><ele>1105</ele><name></name></wpt>
  <trk><name>乐山夹江大旗山小环线（绍林禅院）</name>
      <trkseg>
        <trkpt lat="29.762067" lon="103.424924"><ele>1121.9985</ele><time>2026-05-30T18:32:18.000Z</time></trkpt>
        <trkpt lat="29.762018" lon="103.424912"><ele>1120.1692</ele><time>2026-05-30T18:32:22.000Z</time></trkpt>
        <trkpt lat="29.761982" lon="103.424875"><ele>1118.5441</ele><time>2026-05-30T18:32:28.000Z</time></trkpt>
        <trkpt lat="29.761944" lon="103.424838"><ele>1119.7179</ele><time>2026-05-30T18:32:35.000Z</time></trkpt>
        <trkpt lat="29.761913" lon="103.424798"><ele>1120.9454</ele><time>2026-05-30T18:32:41.000Z</time></trkpt>
        <trkpt lat="29.761858" lon="103.424763"><ele>1127.9043</ele><time>2026-05-30T18:32:46.000Z</time></trkpt>
        <trkpt lat="29.76182" lon="103.42472"><ele>1127.5339</ele><time>2026-05-30T18:32:54.000Z</time></trkpt>
        <trkpt lat="29.761785" lon="103.42468"><ele>1127.1676</ele><time>2026-05-30T18:33:01.000Z</time></trkpt>
        <trkpt lat="29.761744" lon="103.424654"><ele>1127.7013</ele><time>2026-05-30T18:33:07.000Z</time></trkpt>
        <trkpt lat="29.761698" lon="103.424618"><ele>1128.6338</ele><time>2026-05-30T18:33:14.000Z</time></trkpt>
        <trkpt lat="29.761658" lon="103.424577"><ele>1128.3093</ele><time>2026-05-30T18:33:20.000Z</time></trkpt>
        <trkpt lat="29.761617" lon="103.424539"><ele>1128.3805</ele><time>2026-05-30T18:33:26.000Z</time></trkpt>
        <trkpt lat="29.761577" lon="103.424502"><ele>1128.3542</ele><time>2026-05-30T18:33:33.000Z</time></trkpt>
        <trkpt lat="29.761542" lon="103.424469"><ele>1127.4716</ele><time>2026-05-30T18:33:41.000Z</time></trkpt>
        <trkpt lat="29.761498" lon="103.424445"><ele>1126.9906</ele><time>2026-05-30T18:33:51.000Z</time></trkpt>
        <trkpt lat="29.761448" lon="103.424433"><ele>1128.1465</ele><time>2026-05-30T18:33:59.000Z</time></trkpt>
        <trkpt lat="29.761397" lon="103.424427"><ele>1129.2833</ele><time>2026-05-30T18:34:05.000Z</time></trkpt>
        <trkpt lat="29.761343" lon="103.424425"><ele>1130.236</ele><time>2026-05-30T18:34:12.000Z</time></trkpt>
        <trkpt lat="29.761295" lon="103.424417"><ele>1132.3427</ele><time>2026-05-30T18:34:18.000Z</time></trkpt>
        <trkpt lat="29.761248" lon="103.424404"><ele>1132.5596</ele><time>2026-05-30T18:34:26.000Z</time></trkpt>
        <trkpt lat="29.761202" lon="103.424394"><ele>1131.8419</ele><time>2026-05-30T18:34:36.000Z</time></trkpt>
        <trkpt lat="29.761149" lon="103.424391"><ele>1133.1384</ele><time>2026-05-30T18:34:43.000Z</time></trkpt>
        <trkpt lat="29.761102" lon="103.424389"><ele>1133.3129</ele><time>2026-05-30T18:34:49.000Z</time></trkpt>
        <trkpt lat="29.761051" lon="103.424381"><ele>1133.655</ele><time>2026-05-30T18:34:55.000Z</time></trkpt>
        <trkpt lat="29.761008" lon="103.424355"><ele>1133.1312</ele><time>2026-05-30T18:35:02.000Z</time></trkpt>
        <trkpt lat="29.760963" lon="103.424373"><ele>1133.9188</ele><time>2026-05-30T18:35:11.000Z</time></trkpt>
        <trkpt lat="29.760954" lon="103.42432"><ele>1136.5074</ele><time>2026-05-30T18:35:54.000Z</time></trkpt>
        <trkpt lat="29.760945" lon="103.424373"><ele>1133.859</ele><time>2026-05-30T18:36:12.000Z</time></trkpt>
        <trkpt lat="29.760903" lon="103.424401"><ele>1135.684</ele><time>2026-05-30T18:37:26.000Z</time></trkpt>
        <trkpt lat="29.760869" lon="103.424438"><ele>1134.0409</ele><time>2026-05-30T18:37:55.000Z</time></trkpt>
        <trkpt lat="29.760825" lon="103.424463"><ele>1135.8851</ele><time>2026-05-30T18:38:05.000Z</time></trkpt>
        <trkpt lat="29.760779" lon="103.42448"><ele>1136.6687</ele><time>2026-05-30T18:38:16.000Z</time></trkpt>
        <trkpt lat="29.760743" lon="103.424514"><ele>1136.2983</ele><time>2026-05-30T18:38:27.000Z</time></trkpt>
        <trkpt lat="29.760696" lon="103.424566"><ele>1139.2069</ele><time>2026-05-30T18:38:44.000Z</time></trkpt>
        <trkpt lat="29.760697" lon="103.424505"><ele>1140.9675</ele><time>2026-05-30T18:38:45.000Z</time></trkpt>
        <trkpt lat="29.760673" lon="103.424558"><ele>1141.1042</ele><time>2026-05-30T18:38:52.000Z</time></trkpt>
        <trkpt lat="29.760627" lon="103.424584"><ele>1140.7347</ele><time>2026-05-30T18:39:00.000Z</time></trkpt>
        <trkpt lat="29.76059" lon="103.424614"><ele>1141.4629</ele><time>2026-05-30T18:39:09.000Z</time></trkpt>
        <trkpt lat="29.760547" lon="103.424649"><ele>1142.7588</ele><time>2026-05-30T18:39:20.000Z</time></trkpt>
        <trkpt lat="29.760508" lon="103.424694"><ele>1145.4672</ele><time>2026-05-30T18:39:28.000Z</time></trkpt>
        <trkpt lat="29.760487" lon="103.424744"><ele>1146.781</ele><time>2026-05-30T18:39:40.000Z</time></trkpt>
        <trkpt lat="29.760456" lon="103.424785"><ele>1147.0249</ele><time>2026-05-30T18:39:52.000Z</time></trkpt>
        <trkpt lat="29.760427" lon="103.42483"><ele>1145.2035</ele><time>2026-05-30T18:40:00.000Z</time></trkpt>
        <trkpt lat="29.760401" lon="103.424873"><ele>1145.1277</ele><time>2026-05-30T18:40:07.000Z</time></trkpt>
        <trkpt lat="29.760366" lon="103.424909"><ele>1148.1256</ele><time>2026-05-30T18:40:16.000Z</time></trkpt>
        <trkpt lat="29.760338" lon="103.424956"><ele>1149.497</ele><time>2026-05-30T18:40:22.000Z</time></trkpt>
        <trkpt lat="29.760305" lon="103.425004"><ele>1151.201</ele><time>2026-05-30T18:40:28.000Z</time></trkpt>
        <trkpt lat="29.760274" lon="103.42505"><ele>1152.1173</ele><time>2026-05-30T18:40:33.000Z</time></trkpt>
        <trkpt lat="29.760236" lon="103.425091"><ele>1153.2417</ele><time>2026-05-30T18:40:39.000Z</time></trkpt>
        <trkpt lat="29.7602" lon="103.425128"><ele>1153.5916</ele><time>2026-05-30T18:40:43.000Z</time></trkpt>
        <trkpt lat="29.76017" lon="103.42517"><ele>1154.7876</ele><time>2026-05-30T18:40:49.000Z</time></trkpt>
        <trkpt lat="29.760122" lon="103.425197"><ele>1155.2369</ele><time>2026-05-30T18:40:54.000Z</time></trkpt>
        <trkpt lat="29.760082" lon="103.425222"><ele>1156.2317</ele><time>2026-05-30T18:41:01.000Z</time></trkpt>
        <trkpt lat="29.760038" lon="103.425247"><ele>1157.5981</ele><time>2026-05-30T18:41:08.000Z</time></trkpt>
        <trkpt lat="29.759991" lon="103.425243"><ele>1157.6989</ele><time>2026-05-30T18:41:16.000Z</time></trkpt>
        <trkpt lat="29.759958" lon="103.425291"><ele>1156.2832</ele><time>2026-05-30T18:41:23.000Z</time></trkpt>
        <trkpt lat="29.759926" lon="103.42533"><ele>1157.6293</ele><time>2026-05-30T18:41:32.000Z</time></trkpt>
      </trkseg>
      <trkseg>
        <trkpt lat="29.759867" lon="103.425412"><ele>1160.558</ele><time>2026-05-30T18:41:52.000Z</time></trkpt>
        <trkpt lat="29.759844" lon="103.425458"><ele>1163.082</ele><time>2026-05-30T18:42:03.000Z</time></trkpt>
        <trkpt lat="29.759808" lon="103.425514"><ele>1162.492</ele><time>2026-05-30T18:42:12.000Z</time></trkpt>
        <trkpt lat="29.759779" lon="103.425555"><ele>1163.6757</ele><time>2026-05-30T18:42:22.000Z</time></trkpt>
        <trkpt lat="29.759756" lon="103.425599"><ele>1163.1526</ele><time>2026-05-30T18:42:30.000Z</time></trkpt>
        <trkpt lat="29.759721" lon="103.425633"><ele>1164.5598</ele><time>2026-05-30T18:42:36.000Z</time></trkpt>
        <trkpt lat="29.759687" lon="103.425682"><ele>1164.7137</ele><time>2026-05-30T18:42:42.000Z</time></trkpt>
        <trkpt lat="29.759654" lon="103.425717"><ele>1164.6282</ele><time>2026-05-30T18:42:48.000Z</time></trkpt>
        <trkpt lat="29.759618" lon="103.425757"><ele>1163.992</ele><time>2026-05-30T18:42:53.000Z</time></trkpt>
        <trkpt lat="29.759588" lon="103.425797"><ele>1164.3506</ele><time>2026-05-30T18:42:58.000Z</time></trkpt>
        <trkpt lat="29.759545" lon="103.425824"><ele>1163.7161</ele><time>2026-05-30T18:43:03.000Z</time></trkpt>
        <trkpt lat="29.759498" lon="103.425859"><ele>1164.5435</ele><time>2026-05-30T18:43:08.000Z</time></trkpt>
        <trkpt lat="29.759461" lon="103.425905"><ele>1165.2878</ele><time>2026-05-30T18:43:14.000Z</time></trkpt>
        <trkpt lat="29.759425" lon="103.425955"><ele>1167.3475</ele><time>2026-05-30T18:43:20.000Z</time></trkpt>
        <trkpt lat="29.759392" lon="103.425997"><ele>1167.7133</ele><time>2026-05-30T18:43:25.000Z</time></trkpt>
        <trkpt lat="29.75937" lon="103.426046"><ele>1168.9658</ele><time>2026-05-30T18:43:31.000Z</time></trkpt>
        <trkpt lat="29.759321" lon="103.426075"><ele>1169.3297</ele><time>2026-05-30T18:43:37.000Z</time></trkpt>
        <trkpt lat="29.759283" lon="103.426111"><ele>1168.2456</ele><time>2026-05-30T18:43:43.000Z</time></trkpt>
        <trkpt lat="29.759252" lon="103.426149"><ele>1167.0205</ele><time>2026-05-30T18:43:56.000Z</time></trkpt>
        <trkpt lat="29.759212" lon="103.426183"><ele>1168.8376</ele><time>2026-05-30T18:44:03.000Z</time></trkpt>
        <trkpt lat="29.759164" lon="103.426199"><ele>1167.3162</ele><time>2026-05-30T18:44:08.000Z</time></trkpt>
        <trkpt lat="29.759118" lon="103.426225"><ele>1166.5659</ele><time>2026-05-30T18:44:13.000Z</time></trkpt>
        <trkpt lat="29.759075" lon="103.426243"><ele>1164.5339</ele><time>2026-05-30T18:44:17.000Z</time></trkpt>
        <trkpt lat="29.759025" lon="103.426257"><ele>1165.1486</ele><time>2026-05-30T18:44:22.000Z</time></trkpt>
        <trkpt lat="29.758967" lon="103.426254"><ele>1165.8887</ele><time>2026-05-30T18:44:27.000Z</time></trkpt>
        <trkpt lat="29.758917" lon="103.426241"><ele>1170.0032</ele><time>2026-05-30T18:44:32.000Z</time></trkpt>
        <trkpt lat="29.758864" lon="103.426221"><ele>1172.1431</ele><time>2026-05-30T18:44:37.000Z</time></trkpt>
        <trkpt lat="29.75882" lon="103.426188"><ele>1174.2379</ele><time>2026-05-30T18:44:42.000Z</time></trkpt>
        <trkpt lat="29.758778" lon="103.42615"><ele>1174.1604</ele><time>2026-05-30T18:44:47.000Z</time></trkpt>
        <trkpt lat="29.758735" lon="103.42613"><ele>1173.324</ele><time>2026-05-30T18:44:51.000Z</time></trkpt>
        <trkpt lat="29.758734" lon="103.426072"><ele>1173.372</ele><time>2026-05-30T18:44:55.000Z</time></trkpt>
        <trkpt lat="29.758693" lon="103.426033"><ele>1173.2336</ele><time>2026-05-30T18:45:00.000Z</time></trkpt>
        <trkpt lat="29.758665" lon="103.42599"><ele>1171.2655</ele><time>2026-05-30T18:45:07.000Z</time></trkpt>
        <trkpt lat="29.758629" lon="103.425945"><ele>1170.9863</ele><time>2026-05-30T18:45:14.000Z</time></trkpt>
        <trkpt lat="29.758588" lon="103.425893"><ele>1171.0275</ele><time>2026-05-30T18:45:20.000Z</time></trkpt>
        <trkpt lat="29.758565" lon="103.425839"><ele>1169.3062</ele><time>2026-05-30T18:45:25.000Z</time></trkpt>
        <trkpt lat="29.75853" lon="103.425805"><ele>1169.4308</ele><time>2026-05-30T18:45:31.000Z</time></trkpt>
        <trkpt lat="29.758496" lon="103.425761"><ele>1170.7648</ele><time>2026-05-30T18:45:36.000Z</time></trkpt>
        <trkpt lat="29.75847" lon="103.425717"><ele>1169.9701</ele><time>2026-05-30T18:45:41.000Z</time></trkpt>
        <trkpt lat="29.758439" lon="103.425677"><ele>1170.6206</ele><time>2026-05-30T18:45:47.000Z</time></trkpt>
        <trkpt lat="29.758414" lon="103.425633"><ele>1170.7506</ele><time>2026-05-30T18:45:53.000Z</time></trkpt>
        <trkpt lat="29.758396" lon="103.425583"><ele>1172.7252</ele><time>2026-05-30T18:46:00.000Z</time></trkpt>
        <trkpt lat="29.75837" lon="103.425541"><ele>1173.1996</ele><time>2026-05-30T18:46:06.000Z</time></trkpt>
        <trkpt lat="29.758326" lon="103.425511"><ele>1173.3844</ele><time>2026-05-30T18:46:12.000Z</time></trkpt>
        <trkpt lat="29.758298" lon="103.425459"><ele>1173.8257</ele><time>2026-05-30T18:46:18.000Z</time></trkpt>
        <trkpt lat="29.758265" lon="103.425421"><ele>1172.3782</ele><time>2026-05-30T18:46:23.000Z</time></trkpt>
        <trkpt lat="29.758234" lon="103.425379"><ele>1172.8446</ele><time>2026-05-30T18:46:29.000Z</time></trkpt>
        <trkpt lat="29.758205" lon="103.425338"><ele>1173.5778</ele><time>2026-05-30T18:46:35.000Z</time></trkpt>
        <trkpt lat="29.758175" lon="103.425297"><ele>1173.7097</ele><time>2026-05-30T18:46:43.000Z</time></trkpt>
        <trkpt lat="29.758141" lon="103.425255"><ele>1174.6542</ele><time>2026-05-30T18:46:51.000Z</time></trkpt>
        <trkpt lat="29.75807" lon="103.425189"><ele>1174.9521</ele><time>2026-05-30T18:47:01.000Z</time></trkpt>
        <trkpt lat="29.758034" lon="103.425224"><ele>1176.9999</ele><time>2026-05-30T18:47:21.000Z</time></trkpt>
        <trkpt lat="29.75805" lon="103.42528"><ele>1176.7119</ele><time>2026-05-30T18:47:31.000Z</time></trkpt>
        <trkpt lat="29.758078" lon="103.42533"><ele>1175.5624</ele><time>2026-05-30T18:47:37.000Z</time></trkpt>
        <trkpt lat="29.758068" lon="103.425381"><ele>1175.8809</ele><time>2026-05-30T18:47:47.000Z</time></trkpt>
        <trkpt lat="29.758048" lon="103.425428"><ele>1175.4095</ele><time>2026-05-30T18:48:01.000Z</time></trkpt>
        <trkpt lat="29.758078" lon="103.425471"><ele>1177.1089</ele><time>2026-05-30T18:48:13.000Z</time></trkpt>
        <trkpt lat="29.758085" lon="103.425522"><ele>1176.5708</ele><time>2026-05-30T18:48:21.000Z</time></trkpt>
        <trkpt lat="29.758099" lon="103.425572"><ele>1177.3059</ele><time>2026-05-30T18:48:31.000Z</time></trkpt>
        <trkpt lat="29.758106" lon="103.425626"><ele>1179.0049</ele><time>2026-05-30T18:48:40.000Z</time></trkpt>
        <trkpt lat="29.758135" lon="103.425679"><ele>1180.4386</ele><time>2026-05-30T18:48:46.000Z</time></trkpt>
        <trkpt lat="29.758134" lon="103.425736"><ele>1181.6882</ele><time>2026-05-30T18:48:54.000Z</time></trkpt>
        <trkpt lat="29.758146" lon="103.42579"><ele>1182.6504</ele><time>2026-05-30T18:49:01.000Z</time></trkpt>
        <trkpt lat="29.758158" lon="103.425844"><ele>1183.2719</ele><time>2026-05-30T18:49:06.000Z</time></trkpt>
        <trkpt lat="29.758161" lon="103.425897"><ele>1183.5619</ele><time>2026-05-30T18:49:13.000Z</time></trkpt>
        <trkpt lat="29.758172" lon="103.425953"><ele>1183.0939</ele><time>2026-05-30T18:49:23.000Z</time></trkpt>
        <trkpt lat="29.758188" lon="103.426014"><ele>1184.4552</ele><time>2026-05-30T18:49:30.000Z</time></trkpt>
        <trkpt lat="29.758185" lon="103.426066"><ele>1184.9702</ele><time>2026-05-30T18:49:38.000Z</time></trkpt>
        <trkpt lat="29.758185" lon="103.426124"><ele>1184.7906</ele><time>2026-05-30T18:49:44.000Z</time></trkpt>
        <trkpt lat="29.758207" lon="103.42617"><ele>1185.1068</ele><time>2026-05-30T18:49:50.000Z</time></trkpt>
        <trkpt lat="29.758187" lon="103.426227"><ele>1186.6136</ele><time>2026-05-30T18:49:59.000Z</time></trkpt>
        <trkpt lat="29.758217" lon="103.42628"><ele>1187.6569</ele><time>2026-05-30T18:50:06.000Z</time></trkpt>
        <trkpt lat="29.758204" lon="103.426331"><ele>1187.6526</ele><time>2026-05-30T18:50:11.000Z</time></trkpt>
        <trkpt lat="29.7582" lon="103.426392"><ele>1188.6045</ele><time>2026-05-30T18:50:23.000Z</time></trkpt>
        <trkpt lat="29.758203" lon="103.426451"><ele>1187.9166</ele><time>2026-05-30T18:50:38.000Z</time></trkpt>
        <trkpt lat="29.758182" lon="103.426399"><ele>1190.7678</ele><time>2026-05-30T18:51:17.000Z</time></trkpt>
        <trkpt lat="29.758179" lon="103.426341"><ele>1190.8269</ele><time>2026-05-30T18:51:23.000Z</time></trkpt>
        <trkpt lat="29.758169" lon="103.426283"><ele>1189.2059</ele><time>2026-05-30T18:51:28.000Z</time></trkpt>
        <trkpt lat="29.758163" lon="103.426225"><ele>1189.284</ele><time>2026-05-30T18:51:34.000Z</time></trkpt>
        <trkpt lat="29.758153" lon="103.426173"><ele>1189.1407</ele><time>2026-05-30T18:51:38.000Z</time></trkpt>
        <trkpt lat="29.758145" lon="103.426111"><ele>1187.6029</ele><time>2026-05-30T18:51:44.000Z</time></trkpt>
        <trkpt lat="29.758135" lon="103.426059"><ele>1186.6685</ele><time>2026-05-30T18:51:50.000Z</time></trkpt>
        <trkpt lat="29.758122" lon="103.426"><ele>1186.6957</ele><time>2026-05-30T18:51:55.000Z</time></trkpt>
        <trkpt lat="29.758108" lon="103.425947"><ele>1188.1199</ele><time>2026-05-30T18:52:00.000Z</time></trkpt>
        <trkpt lat="29.758112" lon="103.425893"><ele>1188.6427</ele><time>2026-05-30T18:52:05.000Z</time></trkpt>
        <trkpt lat="29.758091" lon="103.425842"><ele>1189.5491</ele><time>2026-05-30T18:52:10.000Z</time></trkpt>
        <trkpt lat="29.758082" lon="103.425777"><ele>1189.515</ele><time>2026-05-30T18:52:15.000Z</time></trkpt>
        <trkpt lat="29.758075" lon="103.425723"><ele>1189.1161</ele><time>2026-05-30T18:52:19.000Z</time></trkpt>
        <trkpt lat="29.758063" lon="103.425671"><ele>1188.1809</ele><time>2026-05-30T18:52:23.000Z</time></trkpt>
        <trkpt lat="29.758057" lon="103.425612"><ele>1185.8779</ele><time>2026-05-30T18:52:28.000Z</time></trkpt>
        <trkpt lat="29.758055" lon="103.425553"><ele>1183.1136</ele><time>2026-05-30T18:52:32.000Z</time></trkpt>
        <trkpt lat="29.758056" lon="103.4255"><ele>1182.7999</ele><time>2026-05-30T18:52:36.000Z</time></trkpt>
        <trkpt lat="29.758042" lon="103.42545"><ele>1181.9369</ele><time>2026-05-30T18:52:40.000Z</time></trkpt>
        <trkpt lat="29.758041" lon="103.425391"><ele>1179.1703</ele><time>2026-05-30T18:52:45.000Z</time></trkpt>
        <trkpt lat="29.758041" lon="103.425334"><ele>1178.8263</ele><time>2026-05-30T18:52:49.000Z</time></trkpt>
        <trkpt lat="29.758049" lon="103.425267"><ele>1177.4366</ele><time>2026-05-30T18:52:54.000Z</time></trkpt>
        <trkpt lat="29.758071" lon="103.425216"><ele>1175.537</ele><time>2026-05-30T18:53:00.000Z</time></trkpt>
        <trkpt lat="29.758123" lon="103.42522"><ele>1173.4125</ele><time>2026-05-30T18:53:06.000Z</time></trkpt>
        <trkpt lat="29.758172" lon="103.425233"><ele>1173.5398</ele><time>2026-05-30T18:53:14.000Z</time></trkpt>
        <trkpt lat="29.758206" lon="103.425278"><ele>1171.1055</ele><time>2026-05-30T18:53:21.000Z</time></trkpt>
        <trkpt lat="29.758247" lon="103.425313"><ele>1170.6014</ele><time>2026-05-30T18:53:27.000Z</time></trkpt>
        <trkpt lat="29.758278" lon="103.425361"><ele>1170.986</ele><time>2026-05-30T18:53:33.000Z</time></trkpt>
        <trkpt lat="29.75832" lon="103.425396"><ele>1171.2094</ele><time>2026-05-30T18:53:39.000Z</time></trkpt>
        <trkpt lat="29.758351" lon="103.425437"><ele>1170.3933</ele><time>2026-05-30T18:53:45.000Z</time></trkpt>
        <trkpt lat="29.758384" lon="103.42548"><ele>1171.1613</ele><time>2026-05-30T18:53:52.000Z</time></trkpt>
        <trkpt lat="29.758418" lon="103.425515"><ele>1171.2045</ele><time>2026-05-30T18:53:58.000Z</time></trkpt>
        <trkpt lat="29.758448" lon="103.425557"><ele>1171.0621</ele><time>2026-05-30T18:54:03.000Z</time></trkpt>
        <trkpt lat="29.758486" lon="103.42559"><ele>1171.3267</ele><time>2026-05-30T18:54:08.000Z</time></trkpt>
        <trkpt lat="29.758518" lon="103.425637"><ele>1171.6473</ele><time>2026-05-30T18:54:15.000Z</time></trkpt>
        <trkpt lat="29.758541" lon="103.425696"><ele>1171.689</ele><time>2026-05-30T18:54:21.000Z</time></trkpt>
        <trkpt lat="29.758568" lon="103.42574"><ele>1171.0322</ele><time>2026-05-30T18:54:26.000Z</time></trkpt>
        <trkpt lat="29.758603" lon="103.425787"><ele>1169.3169</ele><time>2026-05-30T18:54:31.000Z</time></trkpt>
        <trkpt lat="29.758638" lon="103.425828"><ele>1169.3936</ele><time>2026-05-30T18:54:36.000Z</time></trkpt>
        <trkpt lat="29.758665" lon="103.425875"><ele>1169.1201</ele><time>2026-05-30T18:54:41.000Z</time></trkpt>
        <trkpt lat="29.758693" lon="103.425921"><ele>1168.0267</ele><time>2026-05-30T18:54:46.000Z</time></trkpt>
        <trkpt lat="29.758718" lon="103.425969"><ele>1168.367</ele><time>2026-05-30T18:54:51.000Z</time></trkpt>
        <trkpt lat="29.758751" lon="103.426008"><ele>1168.5393</ele><time>2026-05-30T18:54:56.000Z</time></trkpt>
        <trkpt lat="29.758779" lon="103.426058"><ele>1169.1644</ele><time>2026-05-30T18:55:03.000Z</time></trkpt>
        <trkpt lat="29.758822" lon="103.426097"><ele>1169.4028</ele><time>2026-05-30T18:55:09.000Z</time></trkpt>
        <trkpt lat="29.758864" lon="103.426127"><ele>1169.6328</ele><time>2026-05-30T18:55:15.000Z</time></trkpt>
        <trkpt lat="29.758903" lon="103.426156"><ele>1169.9894</ele><time>2026-05-30T18:55:20.000Z</time></trkpt>
        <trkpt lat="29.758938" lon="103.426194"><ele>1168.8776</ele><time>2026-05-30T18:55:26.000Z</time></trkpt>
        <trkpt lat="29.75898" lon="103.426224"><ele>1168.6028</ele><time>2026-05-30T18:55:32.000Z</time></trkpt>
        <trkpt lat="29.759036" lon="103.426227"><ele>1168.4985</ele><time>2026-05-30T18:55:37.000Z</time></trkpt>
        <trkpt lat="29.759083" lon="103.426214"><ele>1168.2285</ele><time>2026-05-30T18:55:43.000Z</time></trkpt>
        <trkpt lat="29.759132" lon="103.426198"><ele>1167.3755</ele><time>2026-05-30T18:55:48.000Z</time></trkpt>
        <trkpt lat="29.75918" lon="103.42618"><ele>1166.8772</ele><time>2026-05-30T18:55:54.000Z</time></trkpt>
        <trkpt lat="29.759229" lon="103.426177"><ele>1166.0419</ele><time>2026-05-30T18:56:01.000Z</time></trkpt>
        <trkpt lat="29.759277" lon="103.426188"><ele>1166.1544</ele><time>2026-05-30T18:57:14.000Z</time></trkpt>
        <trkpt lat="29.759321" lon="103.426217"><ele>1168.1945</ele><time>2026-05-30T18:57:48.000Z</time></trkpt>
        <trkpt lat="29.759341" lon="103.42628"><ele>1169.5322</ele><time>2026-05-30T18:58:09.000Z</time></trkpt>
        <trkpt lat="29.759379" lon="103.426317"><ele>1170.3079</ele><time>2026-05-30T18:58:32.000Z</time></trkpt>
        <trkpt lat="29.759396" lon="103.426369"><ele>1170.8358</ele><time>2026-05-30T18:58:41.000Z</time></trkpt>
        <trkpt lat="29.759399" lon="103.426432"><ele>1170.393</ele><time>2026-05-30T18:58:58.000Z</time></trkpt>
        <trkpt lat="29.759422" lon="103.426479"><ele>1171.5631</ele><time>2026-05-30T18:59:09.000Z</time></trkpt>
        <trkpt lat="29.759423" lon="103.426549"><ele>1171.7231</ele><time>2026-05-30T18:59:20.000Z</time></trkpt>
        <trkpt lat="29.759456" lon="103.426596"><ele>1170.6407</ele><time>2026-05-30T18:59:32.000Z</time></trkpt>
        <trkpt lat="29.759466" lon="103.426646"><ele>1171.2493</ele><time>2026-05-30T18:59:39.000Z</time></trkpt>
        <trkpt lat="29.759504" lon="103.426678"><ele>1171.4951</ele><time>2026-05-30T18:59:54.000Z</time></trkpt>
        <trkpt lat="29.759535" lon="103.426719"><ele>1173.5607</ele><time>2026-05-30T19:00:11.000Z</time></trkpt>
        <trkpt lat="29.759553" lon="103.426766"><ele>1172.4185</ele><time>2026-05-30T19:00:40.000Z</time></trkpt>
        <trkpt lat="29.759599" lon="103.426828"><ele>1172.374</ele><time>2026-05-30T19:00:51.000Z</time></trkpt>
        <trkpt lat="29.759599" lon="103.426884"><ele>1170.6632</ele><time>2026-05-30T19:01:18.000Z</time></trkpt>
        <trkpt lat="29.759605" lon="103.426938"><ele>1170.379</ele><time>2026-05-30T19:01:30.000Z</time></trkpt>
        <trkpt lat="29.759625" lon="103.426985"><ele>1168.0449</ele><time>2026-05-30T19:01:40.000Z</time></trkpt>
        <trkpt lat="29.759625" lon="103.427041"><ele>1168.3375</ele><time>2026-05-30T19:01:49.000Z</time></trkpt>
        <trkpt lat="29.759652" lon="103.427087"><ele>1169.9072</ele><time>2026-05-30T19:02:06.000Z</time></trkpt>
        <trkpt lat="29.759682" lon="103.427131"><ele>1171.2837</ele><time>2026-05-30T19:02:18.000Z</time></trkpt>
        <trkpt lat="29.759726" lon="103.427161"><ele>1170.859</ele><time>2026-05-30T19:02:51.000Z</time></trkpt>
        <trkpt lat="29.759695" lon="103.427227"><ele>1170.82</ele><time>2026-05-30T19:03:01.000Z</time></trkpt>
        <trkpt lat="29.759742" lon="103.427241"><ele>1171.0607</ele><time>2026-05-30T19:03:18.000Z</time></trkpt>
        <trkpt lat="29.759787" lon="103.427281"><ele>1172.996</ele><time>2026-05-30T19:03:35.000Z</time></trkpt>
        <trkpt lat="29.759809" lon="103.427326"><ele>1175.4205</ele><time>2026-05-30T19:04:08.000Z</time></trkpt>
        <trkpt lat="29.759813" lon="103.42738"><ele>1177.7909</ele><time>2026-05-30T19:04:18.000Z</time></trkpt>
        <trkpt lat="29.759808" lon="103.427438"><ele>1177.6622</ele><time>2026-05-30T19:04:25.000Z</time></trkpt>
        <trkpt lat="29.759786" lon="103.427484"><ele>1178.3132</ele><time>2026-05-30T19:04:35.000Z</time></trkpt>
        <trkpt lat="29.759741" lon="103.427502"><ele>1182.5302</ele><time>2026-05-30T19:04:53.000Z</time></trkpt>
        <trkpt lat="29.759716" lon="103.427548"><ele>1180.8466</ele><time>2026-05-30T19:05:05.000Z</time></trkpt>
        <trkpt lat="29.759757" lon="103.427575"><ele>1180.82</ele><time>2026-05-30T19:05:30.000Z</time></trkpt>
        <trkpt lat="29.759748" lon="103.427634"><ele>1181.2007</ele><time>2026-05-30T19:05:47.000Z</time></trkpt>
        <trkpt lat="29.759748" lon="103.427686"><ele>1181.9294</ele><time>2026-05-30T19:05:58.000Z</time></trkpt>
        <trkpt lat="29.759732" lon="103.427735"><ele>1183.9332</ele><time>2026-05-30T19:06:07.000Z</time></trkpt>
        <trkpt lat="29.759713" lon="103.427804"><ele>1184.984</ele><time>2026-05-30T19:06:12.000Z</time></trkpt>
        <trkpt lat="29.759732" lon="103.427851"><ele>1185.3949</ele><time>2026-05-30T19:06:24.000Z</time></trkpt>
        <trkpt lat="29.759736" lon="103.427908"><ele>1186.8044</ele><time>2026-05-30T19:06:43.000Z</time></trkpt>
        <trkpt lat="29.759727" lon="103.427962"><ele>1187.4329</ele><time>2026-05-30T19:06:50.000Z</time></trkpt>
        <trkpt lat="29.759743" lon="103.428016"><ele>1187.7013</ele><time>2026-05-30T19:07:03.000Z</time></trkpt>
        <trkpt lat="29.759719" lon="103.428067"><ele>1188.4279</ele><time>2026-05-30T19:07:17.000Z</time></trkpt>
        <trkpt lat="29.759701" lon="103.428125"><ele>1188.5548</ele><time>2026-05-30T19:07:36.000Z</time></trkpt>
        <trkpt lat="29.759748" lon="103.42814"><ele>1188.5544</ele><time>2026-05-30T19:07:46.000Z</time></trkpt>
        <trkpt lat="29.759735" lon="103.428196"><ele>1189.8884</ele><time>2026-05-30T19:07:54.000Z</time></trkpt>
        <trkpt lat="29.759749" lon="103.428248"><ele>1191.0637</ele><time>2026-05-30T19:08:18.000Z</time></trkpt>
        <trkpt lat="29.759726" lon="103.428293"><ele>1191.2782</ele><time>2026-05-30T19:08:48.000Z</time></trkpt>
        <trkpt lat="29.759719" lon="103.428348"><ele>1192.2036</ele><time>2026-05-30T19:09:04.000Z</time></trkpt>
        <trkpt lat="29.759701" lon="103.4284"><ele>1190.9574</ele><time>2026-05-30T19:09:21.000Z</time></trkpt>
        <trkpt lat="29.759676" lon="103.428444"><ele>1194.2953</ele><time>2026-05-30T19:09:41.000Z</time></trkpt>
        <trkpt lat="29.75966" lon="103.428495"><ele>1193.765</ele><time>2026-05-30T19:10:10.000Z</time></trkpt>
        <trkpt lat="29.759688" lon="103.428548"><ele>1197.385</ele><time>2026-05-30T19:10:51.000Z</time></trkpt>
        <trkpt lat="29.759694" lon="103.4286"><ele>1186.0476</ele><time>2026-05-30T19:11:37.000Z</time></trkpt>
        <trkpt lat="29.759703" lon="103.428651"><ele>1191.6082</ele><time>2026-05-30T19:12:07.000Z</time></trkpt>
        <trkpt lat="29.759673" lon="103.428696"><ele>1193.4004</ele><time>2026-05-30T19:12:20.000Z</time></trkpt>
        <trkpt lat="29.759651" lon="103.428747"><ele>1191.667</ele><time>2026-05-30T19:12:49.000Z</time></trkpt>
        <trkpt lat="29.759696" lon="103.42875"><ele>1184.7284</ele><time>2026-05-30T19:13:18.000Z</time></trkpt>
        <trkpt lat="29.759714" lon="103.428803"><ele>1181.9491</ele><time>2026-05-30T19:13:22.000Z</time></trkpt>
        <trkpt lat="29.759714" lon="103.428857"><ele>1177.3099</ele><time>2026-05-30T19:13:30.000Z</time></trkpt>
        <trkpt lat="29.759738" lon="103.428809"><ele>1183.3585</ele><time>2026-05-30T19:13:38.000Z</time></trkpt>
        <trkpt lat="29.759787" lon="103.428794"><ele>1179.8674</ele><time>2026-05-30T19:14:01.000Z</time></trkpt>
        <trkpt lat="29.759809" lon="103.428843"><ele>1175.0436</ele><time>2026-05-30T19:14:28.000Z</time></trkpt>
        <trkpt lat="29.759802" lon="103.428779"><ele>1174.345</ele><time>2026-05-30T19:14:35.000Z</time></trkpt>
        <trkpt lat="29.759818" lon="103.428829"><ele>1173.8135</ele><time>2026-05-30T19:14:58.000Z</time></trkpt>
        <trkpt lat="29.759843" lon="103.428883"><ele>1174.332</ele><time>2026-05-30T19:15:04.000Z</time></trkpt>
        <trkpt lat="29.759888" lon="103.428895"><ele>1173.56</ele><time>2026-05-30T19:15:18.000Z</time></trkpt>
        <trkpt lat="29.759896" lon="103.428949"><ele>1173.6975</ele><time>2026-05-30T19:15:33.000Z</time></trkpt>
        <trkpt lat="29.759865" lon="103.428897"><ele>1173.4813</ele><time>2026-05-30T19:15:38.000Z</time></trkpt>
        <trkpt lat="29.759908" lon="103.428925"><ele>1172.5493</ele><time>2026-05-30T19:15:47.000Z</time></trkpt>
        <trkpt lat="29.759954" lon="103.428891"><ele>1172.7633</ele><time>2026-05-30T19:15:55.000Z</time></trkpt>
        <trkpt lat="29.759998" lon="103.428874"><ele>1172.9409</ele><time>2026-05-30T19:16:04.000Z</time></trkpt>
        <trkpt lat="29.760023" lon="103.428923"><ele>1175.7101</ele><time>2026-05-30T19:16:23.000Z</time></trkpt>
        <trkpt lat="29.760082" lon="103.428899"><ele>1177.4358</ele><time>2026-05-30T19:16:32.000Z</time></trkpt>
        <trkpt lat="29.760058" lon="103.428853"><ele>1180.5594</ele><time>2026-05-30T19:16:45.000Z</time></trkpt>
        <trkpt lat="29.760082" lon="103.428902"><ele>1179.691</ele><time>2026-05-30T19:16:59.000Z</time></trkpt>
        <trkpt lat="29.760124" lon="103.428929"><ele>1180.0216</ele><time>2026-05-30T19:17:03.000Z</time></trkpt>
        <trkpt lat="29.760083" lon="103.428949"><ele>1179.4321</ele><time>2026-05-30T19:17:07.000Z</time></trkpt>
        <trkpt lat="29.760054" lon="103.428994"><ele>1176.7896</ele><time>2026-05-30T19:17:21.000Z</time></trkpt>
        <trkpt lat="29.760074" lon="103.429065"><ele>1174.0765</ele><time>2026-05-30T19:17:35.000Z</time></trkpt>
        <trkpt lat="29.760057" lon="103.429114"><ele>1173.9348</ele><time>2026-05-30T19:17:46.000Z</time></trkpt>
        <trkpt lat="29.760048" lon="103.42917"><ele>1174.1255</ele><time>2026-05-30T19:18:23.000Z</time></trkpt>
        <trkpt lat="29.760016" lon="103.42921"><ele>1174.6602</ele><time>2026-05-30T19:18:53.000Z</time></trkpt>
        <trkpt lat="29.760034" lon="103.42927"><ele>1175.308</ele><time>2026-05-30T19:18:58.000Z</time></trkpt>
        <trkpt lat="29.760063" lon="103.429339"><ele>1165.8433</ele><time>2026-05-30T19:19:29.000Z</time></trkpt>
        <trkpt lat="29.760095" lon="103.429376"><ele>1163.072</ele><time>2026-05-30T19:19:41.000Z</time></trkpt>
        <trkpt lat="29.760149" lon="103.42938"><ele>1162.4865</ele><time>2026-05-30T19:19:50.000Z</time></trkpt>
        <trkpt lat="29.76019" lon="103.429403"><ele>1161.2598</ele><time>2026-05-30T19:20:00.000Z</time></trkpt>
        <trkpt lat="29.760207" lon="103.429454"><ele>1160.8768</ele><time>2026-05-30T19:20:14.000Z</time></trkpt>
        <trkpt lat="29.760247" lon="103.429479"><ele>1157.9535</ele><time>2026-05-30T19:20:37.000Z</time></trkpt>
        <trkpt lat="29.760273" lon="103.429522"><ele>1158.0264</ele><time>2026-05-30T19:20:50.000Z</time></trkpt>
        <trkpt lat="29.760262" lon="103.429573"><ele>1156.3962</ele><time>2026-05-30T19:21:07.000Z</time></trkpt>
        <trkpt lat="29.760279" lon="103.429524"><ele>1156.8615</ele><time>2026-05-30T19:21:20.000Z</time></trkpt>
        <trkpt lat="29.760319" lon="103.429566"><ele>1156.2603</ele><time>2026-05-30T19:21:50.000Z</time></trkpt>
        <trkpt lat="29.76033" lon="103.429623"><ele>1158.0243</ele><time>2026-05-30T19:22:11.000Z</time></trkpt>
        <trkpt lat="29.760364" lon="103.429544"><ele>1154.2472</ele><time>2026-05-30T19:22:23.000Z</time></trkpt>
        <trkpt lat="29.760318" lon="103.429549"><ele>1153.2375</ele><time>2026-05-30T19:22:29.000Z</time></trkpt>
        <trkpt lat="29.760316" lon="103.42961"><ele>1153.4141</ele><time>2026-05-30T19:22:36.000Z</time></trkpt>
        <trkpt lat="29.760384" lon="103.429649"><ele>1153.1692</ele><time>2026-05-30T19:22:59.000Z</time></trkpt>
        <trkpt lat="29.76038" lon="103.429586"><ele>1152.5273</ele><time>2026-05-30T19:23:01.000Z</time></trkpt>
        <trkpt lat="29.760342" lon="103.429643"><ele>1152.2074</ele><time>2026-05-30T19:23:05.000Z</time></trkpt>
        <trkpt lat="29.760354" lon="103.429711"><ele>1157.4775</ele><time>2026-05-30T19:23:26.000Z</time></trkpt>
        <trkpt lat="29.760327" lon="103.429755"><ele>1160.6534</ele><time>2026-05-30T19:23:38.000Z</time></trkpt>
        <trkpt lat="29.760353" lon="103.429687"><ele>1160.3701</ele><time>2026-05-30T19:23:39.000Z</time></trkpt>
        <trkpt lat="29.760321" lon="103.42975"><ele>1159.5018</ele><time>2026-05-30T19:23:42.000Z</time></trkpt>
        <trkpt lat="29.760293" lon="103.429799"><ele>1151.3672</ele><time>2026-05-30T19:24:03.000Z</time></trkpt>
        <trkpt lat="29.760338" lon="103.429789"><ele>1149.8191</ele><time>2026-05-30T19:24:11.000Z</time></trkpt>
        <trkpt lat="29.760369" lon="103.429741"><ele>1144.6779</ele><time>2026-05-30T19:24:32.000Z</time></trkpt>
        <trkpt lat="29.760339" lon="103.429802"><ele>1145.0067</ele><time>2026-05-30T19:24:47.000Z</time></trkpt>
        <trkpt lat="29.760396" lon="103.429788"><ele>1142.7274</ele><time>2026-05-30T19:24:55.000Z</time></trkpt>
        <trkpt lat="29.760355" lon="103.429826"><ele>1142.0637</ele><time>2026-05-30T19:25:01.000Z</time></trkpt>
        <trkpt lat="29.760361" lon="103.429891"><ele>1140.0156</ele><time>2026-05-30T19:25:14.000Z</time></trkpt>
        <trkpt lat="29.760404" lon="103.429955"><ele>1136.816</ele><time>2026-05-30T19:25:32.000Z</time></trkpt>
        <trkpt lat="29.760397" lon="103.430011"><ele>1136.1232</ele><time>2026-05-30T19:26:13.000Z</time></trkpt>
        <trkpt lat="29.760433" lon="103.429941"><ele>1131.48</ele><time>2026-05-30T19:26:18.000Z</time></trkpt>
        <trkpt lat="29.760435" lon="103.429999"><ele>1131.8545</ele><time>2026-05-30T19:26:35.000Z</time></trkpt>
        <trkpt lat="29.760378" lon="103.430006"><ele>1130.2355</ele><time>2026-05-30T19:26:48.000Z</time></trkpt>
        <trkpt lat="29.760424" lon="103.430016"><ele>1130.6552</ele><time>2026-05-30T19:26:52.000Z</time></trkpt>
        <trkpt lat="29.760386" lon="103.430045"><ele>1132.2678</ele><time>2026-05-30T19:27:07.000Z</time></trkpt>
        <trkpt lat="29.760329" lon="103.430083"><ele>1132.7762</ele><time>2026-05-30T19:27:30.000Z</time></trkpt>
        <trkpt lat="29.760391" lon="103.430089"><ele>1132.3418</ele><time>2026-05-30T19:27:33.000Z</time></trkpt>
        <trkpt lat="29.760396" lon="103.430174"><ele>1130.4347</ele><time>2026-05-30T19:27:55.000Z</time></trkpt>
        <trkpt lat="29.760353" lon="103.430218"><ele>1125.8904</ele><time>2026-05-30T19:28:25.000Z</time></trkpt>
        <trkpt lat="29.760364" lon="103.430271"><ele>1123.6241</ele><time>2026-05-30T19:28:48.000Z</time></trkpt>
        <trkpt lat="29.760386" lon="103.430318"><ele>1121.1709</ele><time>2026-05-30T19:29:11.000Z</time></trkpt>
        <trkpt lat="29.760399" lon="103.430373"><ele>1114.9026</ele><time>2026-05-30T19:29:22.000Z</time></trkpt>
        <trkpt lat="29.760385" lon="103.430433"><ele>1116.5055</ele><time>2026-05-30T19:29:33.000Z</time></trkpt>
        <trkpt lat="29.760427" lon="103.430411"><ele>1112.5865</ele><time>2026-05-30T19:29:44.000Z</time></trkpt>
        <trkpt lat="29.760465" lon="103.430452"><ele>1110.0598</ele><time>2026-05-30T19:29:55.000Z</time></trkpt>
        <trkpt lat="29.760449" lon="103.430501"><ele>1111.0535</ele><time>2026-05-30T19:30:07.000Z</time></trkpt>
        <trkpt lat="29.760474" lon="103.430457"><ele>1101.4564</ele><time>2026-05-30T19:30:49.000Z</time></trkpt>
        <trkpt lat="29.760485" lon="103.430513"><ele>1100.8862</ele><time>2026-05-30T19:30:57.000Z</time></trkpt>
        <trkpt lat="29.760465" lon="103.430576"><ele>1099.572</ele><time>2026-05-30T19:31:03.000Z</time></trkpt>
        <trkpt lat="29.760511" lon="103.430596"><ele>1096.2002</ele><time>2026-05-30T19:31:20.000Z</time></trkpt>
        <trkpt lat="29.760512" lon="103.430651"><ele>1096.7178</ele><time>2026-05-30T19:31:38.000Z</time></trkpt>
        <trkpt lat="29.76055" lon="103.4307"><ele>1095.3234</ele><time>2026-05-30T19:32:29.000Z</time></trkpt>
        <trkpt lat="29.760576" lon="103.430751"><ele>1091.4749</ele><time>2026-05-30T19:32:43.000Z</time></trkpt>
        <trkpt lat="29.760611" lon="103.430788"><ele>1090.1216</ele><time>2026-05-30T19:32:55.000Z</time></trkpt>
        <trkpt lat="29.760612" lon="103.430846"><ele>1089.5109</ele><time>2026-05-30T19:33:04.000Z</time></trkpt>
        <trkpt lat="29.760555" lon="103.430858"><ele>1088.1969</ele><time>2026-05-30T19:33:19.000Z</time></trkpt>
        <trkpt lat="29.760618" lon="103.430884"><ele>1094.2694</ele><time>2026-05-30T19:34:24.000Z</time></trkpt>
        <trkpt lat="29.760572" lon="103.430874"><ele>1090.556</ele><time>2026-05-30T19:34:37.000Z</time></trkpt>
        <trkpt lat="29.760604" lon="103.430834"><ele>1090.9989</ele><time>2026-05-30T19:34:47.000Z</time></trkpt>
        <trkpt lat="29.760557" lon="103.430864"><ele>1086.6056</ele><time>2026-05-30T19:36:02.000Z</time></trkpt>
        <trkpt lat="29.76051" lon="103.430895"><ele>1084.6805</ele><time>2026-05-30T19:36:47.000Z</time></trkpt>
        <trkpt lat="29.760542" lon="103.43084"><ele>1083.1504</ele><time>2026-05-30T19:36:57.000Z</time></trkpt>
        <trkpt lat="29.760572" lon="103.43088"><ele>1090.1986</ele><time>2026-05-30T19:38:13.000Z</time></trkpt>
        <trkpt lat="29.760546" lon="103.430924"><ele>1093.9348</ele><time>2026-05-30T19:38:36.000Z</time></trkpt>
        <trkpt lat="29.760587" lon="103.430896"><ele>1096.0051</ele><time>2026-05-30T19:39:04.000Z</time></trkpt>
        <trkpt lat="29.760574" lon="103.430837"><ele>1090.2362</ele><time>2026-05-30T19:40:00.000Z</time></trkpt>
        <trkpt lat="29.760557" lon="103.430891"><ele>1092.265</ele><time>2026-05-30T19:41:19.000Z</time></trkpt>
        <trkpt lat="29.760597" lon="103.430923"><ele>1090.6642</ele><time>2026-05-30T19:42:08.000Z</time></trkpt>
        <trkpt lat="29.760589" lon="103.430869"><ele>1089.721</ele><time>2026-05-30T19:42:20.000Z</time></trkpt>
      </trkseg>
      <trkseg>
        <trkpt lat="29.76059" lon="103.430915"><ele>1086.7799</ele><time>2026-05-30T19:48:24.000Z</time></trkpt>
        <trkpt lat="29.760636" lon="103.430941"><ele>1084.9559</ele><time>2026-05-30T19:48:34.000Z</time></trkpt>
        <trkpt lat="29.760632" lon="103.431"><ele>1086.1104</ele><time>2026-05-30T19:49:02.000Z</time></trkpt>
        <trkpt lat="29.76064" lon="103.431053"><ele>1086.0251</ele><time>2026-05-30T19:49:14.000Z</time></trkpt>
        <trkpt lat="29.760613" lon="103.431095"><ele>1084.27</ele><time>2026-05-30T19:49:29.000Z</time></trkpt>
        <trkpt lat="29.76063" lon="103.431146"><ele>1079.2225</ele><time>2026-05-30T19:49:39.000Z</time></trkpt>
        <trkpt lat="29.760679" lon="103.431163"><ele>1078.5989</ele><time>2026-05-30T19:49:45.000Z</time></trkpt>
        <trkpt lat="29.760722" lon="103.431143"><ele>1078.057</ele><time>2026-05-30T19:49:56.000Z</time></trkpt>
        <trkpt lat="29.760778" lon="103.431158"><ele>1079.9393</ele><time>2026-05-30T19:50:09.000Z</time></trkpt>
        <trkpt lat="29.76081" lon="103.431198"><ele>1079.8087</ele><time>2026-05-30T19:50:18.000Z</time></trkpt>
        <trkpt lat="29.760868" lon="103.431188"><ele>1081.5304</ele><time>2026-05-30T19:50:31.000Z</time></trkpt>
        <trkpt lat="29.760898" lon="103.431234"><ele>1084.2863</ele><time>2026-05-30T19:50:46.000Z</time></trkpt>
        <trkpt lat="29.760947" lon="103.431268"><ele>1085.5028</ele><time>2026-05-30T19:51:05.000Z</time></trkpt>
        <trkpt lat="29.760931" lon="103.431326"><ele>1083.8502</ele><time>2026-05-30T19:51:12.000Z</time></trkpt>
        <trkpt lat="29.760951" lon="103.431382"><ele>1083.3113</ele><time>2026-05-30T19:51:18.000Z</time></trkpt>
        <trkpt lat="29.760995" lon="103.431411"><ele>1082.3562</ele><time>2026-05-30T19:51:26.000Z</time></trkpt>
        <trkpt lat="29.761035" lon="103.431477"><ele>1079.9022</ele><time>2026-05-30T19:51:32.000Z</time></trkpt>
        <trkpt lat="29.761062" lon="103.431519"><ele>1078.9432</ele><time>2026-05-30T19:51:40.000Z</time></trkpt>
        <trkpt lat="29.761104" lon="103.431555"><ele>1078.6488</ele><time>2026-05-30T19:51:48.000Z</time></trkpt>
        <trkpt lat="29.761128" lon="103.431609"><ele>1076.8375</ele><time>2026-05-30T19:51:55.000Z</time></trkpt>
        <trkpt lat="29.761155" lon="103.431659"><ele>1074.3981</ele><time>2026-05-30T19:52:02.000Z</time></trkpt>
        <trkpt lat="29.761176" lon="103.431706"><ele>1075.0608</ele><time>2026-05-30T19:52:15.000Z</time></trkpt>
        <trkpt lat="29.7612" lon="103.431753"><ele>1074.543</ele><time>2026-05-30T19:52:24.000Z</time></trkpt>
        <trkpt lat="29.761234" lon="103.431791"><ele>1074.4478</ele><time>2026-05-30T19:52:28.000Z</time></trkpt>
        <trkpt lat="29.761266" lon="103.431844"><ele>1071.6522</ele><time>2026-05-30T19:52:39.000Z</time></trkpt>
        <trkpt lat="29.761315" lon="103.431882"><ele>1070.6954</ele><time>2026-05-30T19:52:50.000Z</time></trkpt>
        <trkpt lat="29.761349" lon="103.43192"><ele>1069.858</ele><time>2026-05-30T19:53:08.000Z</time></trkpt>
        <trkpt lat="29.761373" lon="103.431968"><ele>1070.0161</ele><time>2026-05-30T19:53:21.000Z</time></trkpt>
        <trkpt lat="29.761425" lon="103.431954"><ele>1069.5947</ele><time>2026-05-30T19:53:28.000Z</time></trkpt>
        <trkpt lat="29.761456" lon="103.431995"><ele>1069.6123</ele><time>2026-05-30T19:54:07.000Z</time></trkpt>
        <trkpt lat="29.761503" lon="103.431988"><ele>1068.2136</ele><time>2026-05-30T19:54:14.000Z</time></trkpt>
        <trkpt lat="29.761521" lon="103.432038"><ele>1068.2867</ele><time>2026-05-30T19:54:16.000Z</time></trkpt>
        <trkpt lat="29.761567" lon="103.432036"><ele>1069.1792</ele><time>2026-05-30T19:54:34.000Z</time></trkpt>
        <trkpt lat="29.761621" lon="103.432076"><ele>1067.7167</ele><time>2026-05-30T19:54:51.000Z</time></trkpt>
        <trkpt lat="29.761671" lon="103.432111"><ele>1070.1383</ele><time>2026-05-30T19:55:03.000Z</time></trkpt>
        <trkpt lat="29.761722" lon="103.432125"><ele>1071.745</ele><time>2026-05-30T19:55:12.000Z</time></trkpt>
        <trkpt lat="29.761775" lon="103.432151"><ele>1072.9012</ele><time>2026-05-30T19:55:26.000Z</time></trkpt>
        <trkpt lat="29.761837" lon="103.432159"><ele>1072.9849</ele><time>2026-05-30T19:55:36.000Z</time></trkpt>
        <trkpt lat="29.761858" lon="103.432208"><ele>1072.43</ele><time>2026-05-30T19:55:42.000Z</time></trkpt>
        <trkpt lat="29.761904" lon="103.432221"><ele>1071.8004</ele><time>2026-05-30T19:55:51.000Z</time></trkpt>
        <trkpt lat="29.761943" lon="103.43225"><ele>1071.9606</ele><time>2026-05-30T19:55:59.000Z</time></trkpt>
        <trkpt lat="29.761971" lon="103.432296"><ele>1073.7946</ele><time>2026-05-30T19:56:08.000Z</time></trkpt>
        <trkpt lat="29.762001" lon="103.432339"><ele>1073.2643</ele><time>2026-05-30T19:56:18.000Z</time></trkpt>
        <trkpt lat="29.762046" lon="103.43233"><ele>1073.4916</ele><time>2026-05-30T19:56:28.000Z</time></trkpt>
        <trkpt lat="29.762083" lon="103.432361"><ele>1073.5938</ele><time>2026-05-30T19:56:35.000Z</time></trkpt>
        <trkpt lat="29.762095" lon="103.432415"><ele>1073.3986</ele><time>2026-05-30T19:56:43.000Z</time></trkpt>
        <trkpt lat="29.762145" lon="103.432437"><ele>1073.5865</ele><time>2026-05-30T19:56:48.000Z</time></trkpt>
        <trkpt lat="29.762184" lon="103.432481"><ele>1073.6721</ele><time>2026-05-30T19:56:56.000Z</time></trkpt>
        <trkpt lat="29.762205" lon="103.432435"><ele>1069.1047</ele><time>2026-05-30T19:57:17.000Z</time></trkpt>
        <trkpt lat="29.762174" lon="103.432488"><ele>1069.2954</ele><time>2026-05-30T19:57:28.000Z</time></trkpt>
        <trkpt lat="29.762187" lon="103.432544"><ele>1069.9255</ele><time>2026-05-30T19:57:56.000Z</time></trkpt>
        <trkpt lat="29.762241" lon="103.432484"><ele>1071.0288</ele><time>2026-05-30T19:58:07.000Z</time></trkpt>
        <trkpt lat="29.762284" lon="103.432504"><ele>1073.8008</ele><time>2026-05-30T19:58:25.000Z</time></trkpt>
        <trkpt lat="29.762314" lon="103.43257"><ele>1073.3527</ele><time>2026-05-30T19:58:34.000Z</time></trkpt>
        <trkpt lat="29.762308" lon="103.432517"><ele>1072.1176</ele><time>2026-05-30T19:58:49.000Z</time></trkpt>
        <trkpt lat="29.762311" lon="103.432569"><ele>1072.4917</ele><time>2026-05-30T19:58:54.000Z</time></trkpt>
        <trkpt lat="29.762252" lon="103.432563"><ele>1071.7416</ele><time>2026-05-30T19:59:02.000Z</time></trkpt>
        <trkpt lat="29.762273" lon="103.432614"><ele>1069.9442</ele><time>2026-05-30T19:59:25.000Z</time></trkpt>
        <trkpt lat="29.762323" lon="103.432618"><ele>1066.6594</ele><time>2026-05-30T19:59:48.000Z</time></trkpt>
        <trkpt lat="29.76236" lon="103.432653"><ele>1066.0371</ele><time>2026-05-30T20:00:03.000Z</time></trkpt>
        <trkpt lat="29.762365" lon="103.432713"><ele>1065.8062</ele><time>2026-05-30T20:00:11.000Z</time></trkpt>
        <trkpt lat="29.762423" lon="103.432709"><ele>1067.2804</ele><time>2026-05-30T20:00:24.000Z</time></trkpt>
        <trkpt lat="29.762449" lon="103.432767"><ele>1065.3992</ele><time>2026-05-30T20:00:33.000Z</time></trkpt>
        <trkpt lat="29.762471" lon="103.432827"><ele>1065.0901</ele><time>2026-05-30T20:00:43.000Z</time></trkpt>
        <trkpt lat="29.76251" lon="103.432869"><ele>1064.3964</ele><time>2026-05-30T20:00:56.000Z</time></trkpt>
        <trkpt lat="29.762547" lon="103.432897"><ele>1065.5977</ele><time>2026-05-30T20:01:11.000Z</time></trkpt>
        <trkpt lat="29.762575" lon="103.432943"><ele>1065.4386</ele><time>2026-05-30T20:01:18.000Z</time></trkpt>
        <trkpt lat="29.762612" lon="103.432907"><ele>1065.2035</ele><time>2026-05-30T20:01:38.000Z</time></trkpt>
        <trkpt lat="29.762658" lon="103.432934"><ele>1066.4562</ele><time>2026-05-30T20:01:47.000Z</time></trkpt>
        <trkpt lat="29.762707" lon="103.432939"><ele>1066.7843</ele><time>2026-05-30T20:01:50.000Z</time></trkpt>
        <trkpt lat="29.762762" lon="103.432924"><ele>1066.5443</ele><time>2026-05-30T20:01:55.000Z</time></trkpt>
        <trkpt lat="29.762809" lon="103.43294"><ele>1065.8152</ele><time>2026-05-30T20:02:05.000Z</time></trkpt>
        <trkpt lat="29.762853" lon="103.432923"><ele>1066.1516</ele><time>2026-05-30T20:02:13.000Z</time></trkpt>
        <trkpt lat="29.762893" lon="103.432889"><ele>1065.7706</ele><time>2026-05-30T20:02:21.000Z</time></trkpt>
        <trkpt lat="29.762939" lon="103.432906"><ele>1064.263</ele><time>2026-05-30T20:02:26.000Z</time></trkpt>
        <trkpt lat="29.762986" lon="103.432903"><ele>1064.7029</ele><time>2026-05-30T20:02:33.000Z</time></trkpt>
        <trkpt lat="29.763036" lon="103.432896"><ele>1065.5154</ele><time>2026-05-30T20:02:44.000Z</time></trkpt>
        <trkpt lat="29.763089" lon="103.432907"><ele>1065.2261</ele><time>2026-05-30T20:02:55.000Z</time></trkpt>
        <trkpt lat="29.763132" lon="103.432932"><ele>1064.681</ele><time>2026-05-30T20:03:04.000Z</time></trkpt>
        <trkpt lat="29.76317" lon="103.432962"><ele>1065.1835</ele><time>2026-05-30T20:03:12.000Z</time></trkpt>
        <trkpt lat="29.763221" lon="103.432986"><ele>1063.6865</ele><time>2026-05-30T20:03:25.000Z</time></trkpt>
        <trkpt lat="29.763258" lon="103.433024"><ele>1060.6753</ele><time>2026-05-30T20:03:31.000Z</time></trkpt>
        <trkpt lat="29.763288" lon="103.433071"><ele>1059.4148</ele><time>2026-05-30T20:03:37.000Z</time></trkpt>
        <trkpt lat="29.763329" lon="103.43304"><ele>1059.7168</ele><time>2026-05-30T20:03:48.000Z</time></trkpt>
        <trkpt lat="29.763386" lon="103.433048"><ele>1059.8475</ele><time>2026-05-30T20:03:54.000Z</time></trkpt>
        <trkpt lat="29.763417" lon="103.433098"><ele>1060.115</ele><time>2026-05-30T20:04:00.000Z</time></trkpt>
      </trkseg>
      <trkseg>
        <trkpt lat="29.763532" lon="103.433174"><ele>1062.4443</ele><time>2026-05-30T20:04:36.000Z</time></trkpt>
        <trkpt lat="29.763542" lon="103.433236"><ele>1061.9231</ele><time>2026-05-30T20:04:45.000Z</time></trkpt>
        <trkpt lat="29.763544" lon="103.433226"><ele>1061.3531</ele><time>2026-05-30T20:04:47.000Z</time></trkpt>
        <trkpt lat="29.763557" lon="103.433253"><ele>1060.4921</ele><time>2026-05-30T20:04:50.000Z</time></trkpt>
        <trkpt lat="29.76358" lon="103.433249"><ele>1059.4159</ele><time>2026-05-30T20:04:54.000Z</time></trkpt>
        <trkpt lat="29.763659" lon="103.433264"><ele>1057.7324</ele><time>2026-05-30T20:05:03.000Z</time></trkpt>
        <trkpt lat="29.763673" lon="103.433253"><ele>1054.597</ele><time>2026-05-30T20:05:11.000Z</time></trkpt>
        <trkpt lat="29.763674" lon="103.433314"><ele>1053.0813</ele><time>2026-05-30T20:05:21.000Z</time></trkpt>
        <trkpt lat="29.763691" lon="103.433366"><ele>1053.4044</ele><time>2026-05-30T20:05:33.000Z</time></trkpt>
        <trkpt lat="29.763733" lon="103.433405"><ele>1052.7272</ele><time>2026-05-30T20:05:46.000Z</time></trkpt>
        <trkpt lat="29.763754" lon="103.433451"><ele>1052.8319</ele><time>2026-05-30T20:05:55.000Z</time></trkpt>
        <trkpt lat="29.763763" lon="103.433505"><ele>1052.7909</ele><time>2026-05-30T20:06:15.000Z</time></trkpt>
        <trkpt lat="29.763806" lon="103.433523"><ele>1053.0278</ele><time>2026-05-30T20:06:24.000Z</time></trkpt>
        <trkpt lat="29.763857" lon="103.433523"><ele>1052.0511</ele><time>2026-05-30T20:06:48.000Z</time></trkpt>
        <trkpt lat="29.763889" lon="103.433564"><ele>1051.8247</ele><time>2026-05-30T20:06:59.000Z</time></trkpt>
        <trkpt lat="29.763931" lon="103.433591"><ele>1046.9641</ele><time>2026-05-30T20:07:22.000Z</time></trkpt>
        <trkpt lat="29.763973" lon="103.433617"><ele>1047.4585</ele><time>2026-05-30T20:07:34.000Z</time></trkpt>
        <trkpt lat="29.763992" lon="103.433675"><ele>1047.4283</ele><time>2026-05-30T20:07:45.000Z</time></trkpt>
        <trkpt lat="29.764037" lon="103.433691"><ele>1046.591</ele><time>2026-05-30T20:07:53.000Z</time></trkpt>
        <trkpt lat="29.764079" lon="103.433721"><ele>1046.8053</ele><time>2026-05-30T20:08:01.000Z</time></trkpt>
        <trkpt lat="29.764092" lon="103.433773"><ele>1044.3828</ele><time>2026-05-30T20:08:06.000Z</time></trkpt>
        <trkpt lat="29.764131" lon="103.433804"><ele>1043.5408</ele><time>2026-05-30T20:08:13.000Z</time></trkpt>
        <trkpt lat="29.764134" lon="103.433863"><ele>1038.9956</ele><time>2026-05-30T20:08:26.000Z</time></trkpt>
        <trkpt lat="29.764188" lon="103.433876"><ele>1034.7574</ele><time>2026-05-30T20:08:44.000Z</time></trkpt>
        <trkpt lat="29.764232" lon="103.43389"><ele>1033.7037</ele><time>2026-05-30T20:08:57.000Z</time></trkpt>
        <trkpt lat="29.764273" lon="103.433927"><ele>1033.5123</ele><time>2026-05-30T20:09:06.000Z</time></trkpt>
        <trkpt lat="29.764311" lon="103.433962"><ele>1032.7366</ele><time>2026-05-30T20:09:16.000Z</time></trkpt>
        <trkpt lat="29.764335" lon="103.434006"><ele>1033.1428</ele><time>2026-05-30T20:09:42.000Z</time></trkpt>
        <trkpt lat="29.764371" lon="103.434053"><ele>1031.0911</ele><time>2026-05-30T20:09:50.000Z</time></trkpt>
        <trkpt lat="29.764411" lon="103.43408"><ele>1031.0043</ele><time>2026-05-30T20:09:56.000Z</time></trkpt>
        <trkpt lat="29.764456" lon="103.434111"><ele>1030.2858</ele><time>2026-05-30T20:10:03.000Z</time></trkpt>
        <trkpt lat="29.764474" lon="103.434159"><ele>1030.0232</ele><time>2026-05-30T20:10:09.000Z</time></trkpt>
        <trkpt lat="29.764511" lon="103.434197"><ele>1029.2034</ele><time>2026-05-30T20:10:15.000Z</time></trkpt>
        <trkpt lat="29.764544" lon="103.434238"><ele>1028.4711</ele><time>2026-05-30T20:10:20.000Z</time></trkpt>
        <trkpt lat="29.764586" lon="103.434267"><ele>1028.417</ele><time>2026-05-30T20:10:26.000Z</time></trkpt>
        <trkpt lat="29.76462" lon="103.434306"><ele>1027.4554</ele><time>2026-05-30T20:10:32.000Z</time></trkpt>
        <trkpt lat="29.764653" lon="103.43435"><ele>1027.0339</ele><time>2026-05-30T20:10:38.000Z</time></trkpt>
        <trkpt lat="29.764685" lon="103.434399"><ele>1027.4786</ele><time>2026-05-30T20:10:42.000Z</time></trkpt>
        <trkpt lat="29.76469" lon="103.434453"><ele>1027.762</ele><time>2026-05-30T20:10:56.000Z</time></trkpt>
        <trkpt lat="29.76472" lon="103.434494"><ele>1026.505</ele><time>2026-05-30T20:11:10.000Z</time></trkpt>
        <trkpt lat="29.764746" lon="103.434541"><ele>1025.7502</ele><time>2026-05-30T20:11:16.000Z</time></trkpt>
        <trkpt lat="29.764778" lon="103.434587"><ele>1024.6768</ele><time>2026-05-30T20:11:22.000Z</time></trkpt>
        <trkpt lat="29.764809" lon="103.43463"><ele>1023.83356</ele><time>2026-05-30T20:11:27.000Z</time></trkpt>
        <trkpt lat="29.764842" lon="103.434671"><ele>1023.0207</ele><time>2026-05-30T20:11:32.000Z</time></trkpt>
        <trkpt lat="29.764879" lon="103.434718"><ele>1023.20245</ele><time>2026-05-30T20:11:38.000Z</time></trkpt>
        <trkpt lat="29.764912" lon="103.434758"><ele>1022.9524</ele><time>2026-05-30T20:11:42.000Z</time></trkpt>
        <trkpt lat="29.764948" lon="103.434791"><ele>1023.6169</ele><time>2026-05-30T20:11:50.000Z</time></trkpt>
        <trkpt lat="29.764987" lon="103.434828"><ele>1022.51086</ele><time>2026-05-30T20:11:54.000Z</time></trkpt>
        <trkpt lat="29.765019" lon="103.434866"><ele>1022.3205</ele><time>2026-05-30T20:11:58.000Z</time></trkpt>
        <trkpt lat="29.765055" lon="103.434906"><ele>1022.8433</ele><time>2026-05-30T20:12:03.000Z</time></trkpt>
        <trkpt lat="29.765086" lon="103.434951"><ele>1022.4916</ele><time>2026-05-30T20:12:08.000Z</time></trkpt>
        <trkpt lat="29.765127" lon="103.434985"><ele>1021.952</ele><time>2026-05-30T20:12:13.000Z</time></trkpt>
        <trkpt lat="29.765159" lon="103.435034"><ele>1021.1174</ele><time>2026-05-30T20:12:17.000Z</time></trkpt>
        <trkpt lat="29.765193" lon="103.435071"><ele>1020.4866</ele><time>2026-05-30T20:12:21.000Z</time></trkpt>
        <trkpt lat="29.765226" lon="103.435127"><ele>1020.55945</ele><time>2026-05-30T20:12:25.000Z</time></trkpt>
        <trkpt lat="29.765256" lon="103.435165"><ele>1019.5638</ele><time>2026-05-30T20:12:30.000Z</time></trkpt>
        <trkpt lat="29.765281" lon="103.435209"><ele>1020.2039</ele><time>2026-05-30T20:12:36.000Z</time></trkpt>
        <trkpt lat="29.765303" lon="103.435255"><ele>1020.15765</ele><time>2026-05-30T20:12:41.000Z</time></trkpt>
        <trkpt lat="29.765334" lon="103.435293"><ele>1018.7664</ele><time>2026-05-30T20:12:47.000Z</time></trkpt>
        <trkpt lat="29.765361" lon="103.43534"><ele>1019.186</ele><time>2026-05-30T20:12:53.000Z</time></trkpt>
        <trkpt lat="29.765388" lon="103.435385"><ele>1019.1433</ele><time>2026-05-30T20:12:59.000Z</time></trkpt>
        <trkpt lat="29.765408" lon="103.435433"><ele>1019.0651</ele><time>2026-05-30T20:13:06.000Z</time></trkpt>
        <trkpt lat="29.765434" lon="103.435479"><ele>1017.5583</ele><time>2026-05-30T20:13:15.000Z</time></trkpt>
        <trkpt lat="29.765467" lon="103.435523"><ele>1017.4475</ele><time>2026-05-30T20:13:25.000Z</time></trkpt>
        <trkpt lat="29.765506" lon="103.435557"><ele>1016.51263</ele><time>2026-05-30T20:13:32.000Z</time></trkpt>
        <trkpt lat="29.765538" lon="103.435596"><ele>1015.3175</ele><time>2026-05-30T20:13:40.000Z</time></trkpt>
        <trkpt lat="29.765587" lon="103.435626"><ele>1014.31537</ele><time>2026-05-30T20:13:48.000Z</time></trkpt>
        <trkpt lat="29.765634" lon="103.435656"><ele>1013.6446</ele><time>2026-05-30T20:13:57.000Z</time></trkpt>
        <trkpt lat="29.765663" lon="103.435695"><ele>1013.9411</ele><time>2026-05-30T20:14:01.000Z</time></trkpt>
        <trkpt lat="29.765698" lon="103.435736"><ele>1014.52325</ele><time>2026-05-30T20:14:15.000Z</time></trkpt>
        <trkpt lat="29.765727" lon="103.435785"><ele>1014.4411</ele><time>2026-05-30T20:14:27.000Z</time></trkpt>
        <trkpt lat="29.765773" lon="103.435802"><ele>1013.76196</ele><time>2026-05-30T20:14:39.000Z</time></trkpt>
        <trkpt lat="29.765826" lon="103.435812"><ele>1013.7106</ele><time>2026-05-30T20:14:47.000Z</time></trkpt>
        <trkpt lat="29.765872" lon="103.435822"><ele>1013.31824</ele><time>2026-05-30T20:14:55.000Z</time></trkpt>
        <trkpt lat="29.765912" lon="103.435847"><ele>1013.78174</ele><time>2026-05-30T20:14:59.000Z</time></trkpt>
        <trkpt lat="29.765958" lon="103.435884"><ele>1013.1834</ele><time>2026-05-30T20:15:09.000Z</time></trkpt>
        <trkpt lat="29.765998" lon="103.435911"><ele>1012.85046</ele><time>2026-05-30T20:15:15.000Z</time></trkpt>
        <trkpt lat="29.766043" lon="103.43593"><ele>1014.12274</ele><time>2026-05-30T20:15:20.000Z</time></trkpt>
        <trkpt lat="29.766088" lon="103.435938"><ele>1014.5001</ele><time>2026-05-30T20:15:27.000Z</time></trkpt>
        <trkpt lat="29.766144" lon="103.435954"><ele>1013.62524</ele><time>2026-05-30T20:15:35.000Z</time></trkpt>
        <trkpt lat="29.766191" lon="103.435971"><ele>1013.2502</ele><time>2026-05-30T20:15:40.000Z</time></trkpt>
        <trkpt lat="29.766232" lon="103.435998"><ele>1012.9664</ele><time>2026-05-30T20:15:48.000Z</time></trkpt>
        <trkpt lat="29.766264" lon="103.436044"><ele>1012.5117</ele><time>2026-05-30T20:15:54.000Z</time></trkpt>
        <trkpt lat="29.766294" lon="103.436088"><ele>1012.261</ele><time>2026-05-30T20:15:58.000Z</time></trkpt>
        <trkpt lat="29.766334" lon="103.436128"><ele>1010.6144</ele><time>2026-05-30T20:16:03.000Z</time></trkpt>
        <trkpt lat="29.766362" lon="103.436181"><ele>1009.7379</ele><time>2026-05-30T20:16:08.000Z</time></trkpt>
        <trkpt lat="29.7664" lon="103.436214"><ele>1009.6321</ele><time>2026-05-30T20:16:13.000Z</time></trkpt>
        <trkpt lat="29.766438" lon="103.436246"><ele>1009.6695</ele><time>2026-05-30T20:16:20.000Z</time></trkpt>
        <trkpt lat="29.766471" lon="103.436287"><ele>1008.8363</ele><time>2026-05-30T20:16:24.000Z</time></trkpt>
        <trkpt lat="29.766518" lon="103.436333"><ele>1008.40497</ele><time>2026-05-30T20:16:29.000Z</time></trkpt>
        <trkpt lat="29.766552" lon="103.436377"><ele>1007.55457</ele><time>2026-05-30T20:16:35.000Z</time></trkpt>
        <trkpt lat="29.766576" lon="103.436427"><ele>1006.4098</ele><time>2026-05-30T20:16:40.000Z</time></trkpt>
        <trkpt lat="29.766598" lon="103.436477"><ele>1004.0467</ele><time>2026-05-30T20:16:45.000Z</time></trkpt>
        <trkpt lat="29.766618" lon="103.436526"><ele>1004.5885</ele><time>2026-05-30T20:16:49.000Z</time></trkpt>
        <trkpt lat="29.766652" lon="103.436575"><ele>1004.6927</ele><time>2026-05-30T20:16:54.000Z</time></trkpt>
        <trkpt lat="29.76667" lon="103.436626"><ele>1004.69025</ele><time>2026-05-30T20:16:58.000Z</time></trkpt>
        <trkpt lat="29.766693" lon="103.436671"><ele>1003.7631</ele><time>2026-05-30T20:17:03.000Z</time></trkpt>
        <trkpt lat="29.766703" lon="103.436722"><ele>1003.951</ele><time>2026-05-30T20:17:07.000Z</time></trkpt>
        <trkpt lat="29.766714" lon="103.436779"><ele>1002.3111</ele><time>2026-05-30T20:17:13.000Z</time></trkpt>
        <trkpt lat="29.766728" lon="103.436844"><ele>999.297</ele><time>2026-05-30T20:17:19.000Z</time></trkpt>
        <trkpt lat="29.76675" lon="103.436899"><ele>999.4155</ele><time>2026-05-30T20:17:24.000Z</time></trkpt>
        <trkpt lat="29.76676" lon="103.436955"><ele>999.4074</ele><time>2026-05-30T20:17:29.000Z</time></trkpt>
        <trkpt lat="29.766753" lon="103.437015"><ele>998.5495</ele><time>2026-05-30T20:17:34.000Z</time></trkpt>
        <trkpt lat="29.766765" lon="103.437067"><ele>998.7581</ele><time>2026-05-30T20:17:42.000Z</time></trkpt>
        <trkpt lat="29.766755" lon="103.43712"><ele>997.1909</ele><time>2026-05-30T20:17:55.000Z</time></trkpt>
        <trkpt lat="29.766748" lon="103.437172"><ele>996.7419</ele><time>2026-05-30T20:18:00.000Z</time></trkpt>
        <trkpt lat="29.766736" lon="103.437233"><ele>997.2632</ele><time>2026-05-30T20:18:08.000Z</time></trkpt>
        <trkpt lat="29.766718" lon="103.437283"><ele>996.66614</ele><time>2026-05-30T20:18:17.000Z</time></trkpt>
        <trkpt lat="29.766694" lon="103.43734"><ele>996.6246</ele><time>2026-05-30T20:18:23.000Z</time></trkpt>
        <trkpt lat="29.766676" lon="103.437401"><ele>997.0199</ele><time>2026-05-30T20:18:30.000Z</time></trkpt>
        <trkpt lat="29.766673" lon="103.437458"><ele>998.46356</ele><time>2026-05-30T20:18:37.000Z</time></trkpt>
        <trkpt lat="29.766689" lon="103.43751"><ele>999.45624</ele><time>2026-05-30T20:18:43.000Z</time></trkpt>
        <trkpt lat="29.766705" lon="103.437562"><ele>999.8176</ele><time>2026-05-30T20:18:51.000Z</time></trkpt>
        <trkpt lat="29.766737" lon="103.437599"><ele>999.53296</ele><time>2026-05-30T20:18:56.000Z</time></trkpt>
        <trkpt lat="29.766761" lon="103.437643"><ele>1000.2535</ele><time>2026-05-30T20:19:02.000Z</time></trkpt>
        <trkpt lat="29.766774" lon="103.437704"><ele>1000.3285</ele><time>2026-05-30T20:19:09.000Z</time></trkpt>
        <trkpt lat="29.766777" lon="103.437758"><ele>1000.6881</ele><time>2026-05-30T20:19:15.000Z</time></trkpt>
        <trkpt lat="29.766805" lon="103.437806"><ele>1002.22156</ele><time>2026-05-30T20:19:20.000Z</time></trkpt>
        <trkpt lat="29.766825" lon="103.437859"><ele>1003.0873</ele><time>2026-05-30T20:19:24.000Z</time></trkpt>
        <trkpt lat="29.766848" lon="103.43792"><ele>1002.8319</ele><time>2026-05-30T20:19:30.000Z</time></trkpt>
        <trkpt lat="29.766871" lon="103.437972"><ele>1003.05426</ele><time>2026-05-30T20:19:35.000Z</time></trkpt>
        <trkpt lat="29.766892" lon="103.438022"><ele>1002.8134</ele><time>2026-05-30T20:19:39.000Z</time></trkpt>
        <trkpt lat="29.766916" lon="103.43808"><ele>1002.6242</ele><time>2026-05-30T20:19:44.000Z</time></trkpt>
        <trkpt lat="29.766925" lon="103.438134"><ele>1002.5041</ele><time>2026-05-30T20:19:48.000Z</time></trkpt>
        <trkpt lat="29.766966" lon="103.438159"><ele>998.33734</ele><time>2026-05-30T20:20:04.000Z</time></trkpt>
        <trkpt lat="29.766944" lon="103.438205"><ele>997.7441</ele><time>2026-05-30T20:20:11.000Z</time></trkpt>
        <trkpt lat="29.766989" lon="103.438209"><ele>998.2568</ele><time>2026-05-30T20:20:32.000Z</time></trkpt>
        <trkpt lat="29.767033" lon="103.43819"><ele>995.427</ele><time>2026-05-30T20:20:46.000Z</time></trkpt>
        <trkpt lat="29.767074" lon="103.438164"><ele>995.0322</ele><time>2026-05-30T20:20:55.000Z</time></trkpt>
        <trkpt lat="29.767119" lon="103.43818"><ele>993.14636</ele><time>2026-05-30T20:21:03.000Z</time></trkpt>
        <trkpt lat="29.767164" lon="103.43815"><ele>992.7869</ele><time>2026-05-30T20:21:11.000Z</time></trkpt>
        <trkpt lat="29.767152" lon="103.438099"><ele>994.7466</ele><time>2026-05-30T20:21:18.000Z</time></trkpt>
        <trkpt lat="29.767128" lon="103.438046"><ele>994.67377</ele><time>2026-05-30T20:21:22.000Z</time></trkpt>
        <trkpt lat="29.767101" lon="103.438003"><ele>995.3059</ele><time>2026-05-30T20:21:27.000Z</time></trkpt>
        <trkpt lat="29.767122" lon="103.437957"><ele>995.6556</ele><time>2026-05-30T20:21:33.000Z</time></trkpt>
        <trkpt lat="29.767126" lon="103.437896"><ele>995.6214</ele><time>2026-05-30T20:21:47.000Z</time></trkpt>
        <trkpt lat="29.767127" lon="103.437838"><ele>994.8857</ele><time>2026-05-30T20:22:03.000Z</time></trkpt>
        <trkpt lat="29.767147" lon="103.437788"><ele>994.28406</ele><time>2026-05-30T20:22:12.000Z</time></trkpt>
        <trkpt lat="29.767186" lon="103.437755"><ele>994.3103</ele><time>2026-05-30T20:22:19.000Z</time></trkpt>
        <trkpt lat="29.767234" lon="103.43774"><ele>993.1513</ele><time>2026-05-30T20:22:24.000Z</time></trkpt>
        <trkpt lat="29.767287" lon="103.437748"><ele>991.1929</ele><time>2026-05-30T20:22:35.000Z</time></trkpt>
        <trkpt lat="29.767334" lon="103.437777"><ele>991.9247</ele><time>2026-05-30T20:22:42.000Z</time></trkpt>
        <trkpt lat="29.767391" lon="103.437797"><ele>990.93195</ele><time>2026-05-30T20:22:50.000Z</time></trkpt>
        <trkpt lat="29.76744" lon="103.437806"><ele>988.1235</ele><time>2026-05-30T20:23:04.000Z</time></trkpt>
        <trkpt lat="29.767485" lon="103.437811"><ele>987.8066</ele><time>2026-05-30T20:23:11.000Z</time></trkpt>
        <trkpt lat="29.767525" lon="103.437838"><ele>986.78754</ele><time>2026-05-30T20:23:18.000Z</time></trkpt>
        <trkpt lat="29.767564" lon="103.437871"><ele>986.4644</ele><time>2026-05-30T20:23:23.000Z</time></trkpt>
        <trkpt lat="29.767594" lon="103.437912"><ele>986.2301</ele><time>2026-05-30T20:23:28.000Z</time></trkpt>
        <trkpt lat="29.767628" lon="103.437953"><ele>986.7504</ele><time>2026-05-30T20:23:36.000Z</time></trkpt>
        <trkpt lat="29.76765" lon="103.438008"><ele>986.9969</ele><time>2026-05-30T20:23:40.000Z</time></trkpt>
        <trkpt lat="29.767674" lon="103.438066"><ele>987.26</ele><time>2026-05-30T20:23:46.000Z</time></trkpt>
        <trkpt lat="29.767689" lon="103.438115"><ele>987.2728</ele><time>2026-05-30T20:23:52.000Z</time></trkpt>
        <trkpt lat="29.767715" lon="103.438172"><ele>987.4153</ele><time>2026-05-30T20:23:57.000Z</time></trkpt>
        <trkpt lat="29.767721" lon="103.438228"><ele>987.9556</ele><time>2026-05-30T20:24:02.000Z</time></trkpt>
        <trkpt lat="29.767757" lon="103.438277"><ele>988.0169</ele><time>2026-05-30T20:24:14.000Z</time></trkpt>
        <trkpt lat="29.767806" lon="103.438273"><ele>987.51514</ele><time>2026-05-30T20:24:18.000Z</time></trkpt>
        <trkpt lat="29.767853" lon="103.438256"><ele>987.5382</ele><time>2026-05-30T20:24:26.000Z</time></trkpt>
        <trkpt lat="29.767901" lon="103.438253"><ele>987.38025</ele><time>2026-05-30T20:24:39.000Z</time></trkpt>
        <trkpt lat="29.767944" lon="103.438221"><ele>986.15643</ele><time>2026-05-30T20:24:49.000Z</time></trkpt>
        <trkpt lat="29.76798" lon="103.438179"><ele>985.28827</ele><time>2026-05-30T20:24:57.000Z</time></trkpt>
        <trkpt lat="29.76801" lon="103.438135"><ele>983.9226</ele><time>2026-05-30T20:25:04.000Z</time></trkpt>
        <trkpt lat="29.768051" lon="103.438101"><ele>982.06104</ele><time>2026-05-30T20:25:12.000Z</time></trkpt>
        <trkpt lat="29.768097" lon="103.438086"><ele>980.4532</ele><time>2026-05-30T20:25:19.000Z</time></trkpt>
        <trkpt lat="29.768137" lon="103.438054"><ele>979.0699</ele><time>2026-05-30T20:25:25.000Z</time></trkpt>
        <trkpt lat="29.768169" lon="103.438009"><ele>978.2119</ele><time>2026-05-30T20:25:32.000Z</time></trkpt>
        <trkpt lat="29.76822" lon="103.437992"><ele>977.9744</ele><time>2026-05-30T20:25:36.000Z</time></trkpt>
        <trkpt lat="29.768266" lon="103.437987"><ele>976.7635</ele><time>2026-05-30T20:25:42.000Z</time></trkpt>
        <trkpt lat="29.768313" lon="103.438001"><ele>976.1211</ele><time>2026-05-30T20:25:47.000Z</time></trkpt>
        <trkpt lat="29.768356" lon="103.437983"><ele>975.4508</ele><time>2026-05-30T20:25:52.000Z</time></trkpt>
        <trkpt lat="29.768401" lon="103.437987"><ele>973.50146</ele><time>2026-05-30T20:26:02.000Z</time></trkpt>
        <trkpt lat="29.768448" lon="103.437986"><ele>972.52246</ele><time>2026-05-30T20:26:09.000Z</time></trkpt>
        <trkpt lat="29.7685" lon="103.437969"><ele>972.0075</ele><time>2026-05-30T20:26:17.000Z</time></trkpt>
        <trkpt lat="29.768553" lon="103.437955"><ele>971.5192</ele><time>2026-05-30T20:26:35.000Z</time></trkpt>
        <trkpt lat="29.768597" lon="103.437969"><ele>970.05585</ele><time>2026-05-30T20:26:45.000Z</time></trkpt>
        <trkpt lat="29.768648" lon="103.437948"><ele>968.5545</ele><time>2026-05-30T20:26:50.000Z</time></trkpt>
        <trkpt lat="29.768696" lon="103.43795"><ele>966.48364</ele><time>2026-05-30T20:26:54.000Z</time></trkpt>
        <trkpt lat="29.768731" lon="103.437906"><ele>965.7276</ele><time>2026-05-30T20:27:02.000Z</time></trkpt>
        <trkpt lat="29.768777" lon="103.437901"><ele>966.6095</ele><time>2026-05-30T20:27:08.000Z</time></trkpt>
        <trkpt lat="29.768827" lon="103.437881"><ele>966.10443</ele><time>2026-05-30T20:27:14.000Z</time></trkpt>
        <trkpt lat="29.768859" lon="103.437835"><ele>965.1101</ele><time>2026-05-30T20:27:20.000Z</time></trkpt>
        <trkpt lat="29.768905" lon="103.437811"><ele>963.6766</ele><time>2026-05-30T20:27:26.000Z</time></trkpt>
        <trkpt lat="29.768951" lon="103.437788"><ele>961.2266</ele><time>2026-05-30T20:27:37.000Z</time></trkpt>
        <trkpt lat="29.769001" lon="103.437781"><ele>960.00525</ele><time>2026-05-30T20:27:44.000Z</time></trkpt>
        <trkpt lat="29.769042" lon="103.437758"><ele>959.4228</ele><time>2026-05-30T20:27:50.000Z</time></trkpt>
        <trkpt lat="29.769094" lon="103.437754"><ele>958.0502</ele><time>2026-05-30T20:27:58.000Z</time></trkpt>
        <trkpt lat="29.769146" lon="103.43776"><ele>956.14734</ele><time>2026-05-30T20:28:04.000Z</time></trkpt>
        <trkpt lat="29.769193" lon="103.43776"><ele>955.2964</ele><time>2026-05-30T20:28:14.000Z</time></trkpt>
        <trkpt lat="29.76924" lon="103.437771"><ele>954.54895</ele><time>2026-05-30T20:28:24.000Z</time></trkpt>
        <trkpt lat="29.769285" lon="103.437765"><ele>953.78424</ele><time>2026-05-30T20:28:29.000Z</time></trkpt>
        <trkpt lat="29.769325" lon="103.437791"><ele>951.5295</ele><time>2026-05-30T20:28:51.000Z</time></trkpt>
        <trkpt lat="29.769348" lon="103.437837"><ele>952.80457</ele><time>2026-05-30T20:29:43.000Z</time></trkpt>
        <trkpt lat="29.769389" lon="103.437808"><ele>950.7305</ele><time>2026-05-30T20:30:11.000Z</time></trkpt>
        <trkpt lat="29.769398" lon="103.437756"><ele>950.5353</ele><time>2026-05-30T20:30:25.000Z</time></trkpt>
        <trkpt lat="29.769445" lon="103.437738"><ele>950.90424</ele><time>2026-05-30T20:30:30.000Z</time></trkpt>
        <trkpt lat="29.769492" lon="103.437747"><ele>948.49646</ele><time>2026-05-30T20:30:38.000Z</time></trkpt>
        <trkpt lat="29.769534" lon="103.437726"><ele>946.15967</ele><time>2026-05-30T20:30:47.000Z</time></trkpt>
        <trkpt lat="29.769584" lon="103.43772"><ele>944.8007</ele><time>2026-05-30T20:30:56.000Z</time></trkpt>
        <trkpt lat="29.769633" lon="103.437726"><ele>945.1518</ele><time>2026-05-30T20:31:04.000Z</time></trkpt>
        <trkpt lat="29.769687" lon="103.437735"><ele>942.95154</ele><time>2026-05-30T20:31:15.000Z</time></trkpt>
        <trkpt lat="29.769736" lon="103.437724"><ele>939.7978</ele><time>2026-05-30T20:31:26.000Z</time></trkpt>
        <trkpt lat="29.769771" lon="103.437759"><ele>940.82117</ele><time>2026-05-30T20:31:36.000Z</time></trkpt>
        <trkpt lat="29.769811" lon="103.437784"><ele>939.5694</ele><time>2026-05-30T20:31:55.000Z</time></trkpt>
        <trkpt lat="29.769863" lon="103.437774"><ele>939.35614</ele><time>2026-05-30T20:32:03.000Z</time></trkpt>
        <trkpt lat="29.769912" lon="103.437767"><ele>939.3238</ele><time>2026-05-30T20:32:11.000Z</time></trkpt>
        <trkpt lat="29.76996" lon="103.437789"><ele>938.9366</ele><time>2026-05-30T20:32:18.000Z</time></trkpt>
        <trkpt lat="29.770008" lon="103.437788"><ele>938.27386</ele><time>2026-05-30T20:32:22.000Z</time></trkpt>
        <trkpt lat="29.770055" lon="103.437789"><ele>937.55444</ele><time>2026-05-30T20:32:28.000Z</time></trkpt>
        <trkpt lat="29.770097" lon="103.437806"><ele>939.14966</ele><time>2026-05-30T20:32:33.000Z</time></trkpt>
        <trkpt lat="29.770134" lon="103.437843"><ele>937.7694</ele><time>2026-05-30T20:32:49.000Z</time></trkpt>
        <trkpt lat="29.770147" lon="103.437894"><ele>937.526</ele><time>2026-05-30T20:32:57.000Z</time></trkpt>
        <trkpt lat="29.770193" lon="103.437919"><ele>935.75464</ele><time>2026-05-30T20:33:05.000Z</time></trkpt>
        <trkpt lat="29.770244" lon="103.437935"><ele>936.7833</ele><time>2026-05-30T20:33:13.000Z</time></trkpt>
        <trkpt lat="29.770284" lon="103.437969"><ele>938.3293</ele><time>2026-05-30T20:33:19.000Z</time></trkpt>
        <trkpt lat="29.770316" lon="103.438009"><ele>939.9992</ele><time>2026-05-30T20:33:25.000Z</time></trkpt>
        <trkpt lat="29.770358" lon="103.438039"><ele>939.465</ele><time>2026-05-30T20:33:34.000Z</time></trkpt>
        <trkpt lat="29.770399" lon="103.43807"><ele>938.05133</ele><time>2026-05-30T20:33:46.000Z</time></trkpt>
        <trkpt lat="29.770411" lon="103.438018"><ele>934.7176</ele><time>2026-05-30T20:34:07.000Z</time></trkpt>
        <trkpt lat="29.770398" lon="103.437967"><ele>934.64276</ele><time>2026-05-30T20:34:11.000Z</time></trkpt>
        <trkpt lat="29.770361" lon="103.43793"><ele>935.71344</ele><time>2026-05-30T20:34:22.000Z</time></trkpt>
        <trkpt lat="29.770317" lon="103.437907"><ele>937.4449</ele><time>2026-05-30T20:34:33.000Z</time></trkpt>
        <trkpt lat="29.770264" lon="103.437879"><ele>937.8611</ele><time>2026-05-30T20:34:42.000Z</time></trkpt>
        <trkpt lat="29.770218" lon="103.437857"><ele>938.1497</ele><time>2026-05-30T20:34:49.000Z</time></trkpt>
        <trkpt lat="29.770251" lon="103.437818"><ele>938.8739</ele><time>2026-05-30T20:34:58.000Z</time></trkpt>
        <trkpt lat="29.770209" lon="103.437794"><ele>939.74963</ele><time>2026-05-30T20:35:01.000Z</time></trkpt>
        <trkpt lat="29.770221" lon="103.437738"><ele>941.1435</ele><time>2026-05-30T20:35:16.000Z</time></trkpt>
        <trkpt lat="29.770269" lon="103.437744"><ele>941.85706</ele><time>2026-05-30T20:35:23.000Z</time></trkpt>
        <trkpt lat="29.770316" lon="103.437725"><ele>942.4894</ele><time>2026-05-30T20:35:34.000Z</time></trkpt>
        <trkpt lat="29.770315" lon="103.437671"><ele>942.9347</ele><time>2026-05-30T20:35:48.000Z</time></trkpt>
        <trkpt lat="29.770301" lon="103.43762"><ele>944.6353</ele><time>2026-05-30T20:35:57.000Z</time></trkpt>
        <trkpt lat="29.770314" lon="103.43757"><ele>945.6588</ele><time>2026-05-30T20:36:07.000Z</time></trkpt>
        <trkpt lat="29.770279" lon="103.437519"><ele>944.6054</ele><time>2026-05-30T20:36:14.000Z</time></trkpt>
        <trkpt lat="29.770286" lon="103.437466"><ele>942.21606</ele><time>2026-05-30T20:36:19.000Z</time></trkpt>
        <trkpt lat="29.770266" lon="103.437417"><ele>941.8766</ele><time>2026-05-30T20:36:26.000Z</time></trkpt>
        <trkpt lat="29.770229" lon="103.437379"><ele>940.8497</ele><time>2026-05-30T20:36:34.000Z</time></trkpt>
        <trkpt lat="29.770189" lon="103.437355"><ele>939.6471</ele><time>2026-05-30T20:36:41.000Z</time></trkpt>
        <trkpt lat="29.770168" lon="103.437301"><ele>939.4337</ele><time>2026-05-30T20:36:48.000Z</time></trkpt>
        <trkpt lat="29.770141" lon="103.437255"><ele>938.2882</ele><time>2026-05-30T20:36:59.000Z</time></trkpt>
        <trkpt lat="29.770114" lon="103.437208"><ele>937.0177</ele><time>2026-05-30T20:37:15.000Z</time></trkpt>
        <trkpt lat="29.770094" lon="103.43716"><ele>934.47614</ele><time>2026-05-30T20:37:30.000Z</time></trkpt>
        <trkpt lat="29.770079" lon="103.437107"><ele>936.0194</ele><time>2026-05-30T20:37:39.000Z</time></trkpt>
        <trkpt lat="29.770059" lon="103.437052"><ele>937.8796</ele><time>2026-05-30T20:37:48.000Z</time></trkpt>
        <trkpt lat="29.770012" lon="103.437034"><ele>938.31335</ele><time>2026-05-30T20:37:55.000Z</time></trkpt>
        <trkpt lat="29.769968" lon="103.437055"><ele>937.2509</ele><time>2026-05-30T20:38:10.000Z</time></trkpt>
        <trkpt lat="29.769913" lon="103.437069"><ele>938.87866</ele><time>2026-05-30T20:38:20.000Z</time></trkpt>
        <trkpt lat="29.769873" lon="103.437041"><ele>939.86237</ele><time>2026-05-30T20:38:27.000Z</time></trkpt>
        <trkpt lat="29.769818" lon="103.437044"><ele>939.8728</ele><time>2026-05-30T20:38:34.000Z</time></trkpt>
        <trkpt lat="29.769768" lon="103.437025"><ele>942.07623</ele><time>2026-05-30T20:38:42.000Z</time></trkpt>
        <trkpt lat="29.769715" lon="103.436997"><ele>943.85864</ele><time>2026-05-30T20:38:56.000Z</time></trkpt>
        <trkpt lat="29.769682" lon="103.436958"><ele>943.7902</ele><time>2026-05-30T20:39:05.000Z</time></trkpt>
        <trkpt lat="29.769661" lon="103.436911"><ele>945.4794</ele><time>2026-05-30T20:39:24.000Z</time></trkpt>
        <trkpt lat="29.769625" lon="103.436878"><ele>945.6147</ele><time>2026-05-30T20:39:34.000Z</time></trkpt>
        <trkpt lat="29.76958" lon="103.43686"><ele>945.33057</ele><time>2026-05-30T20:39:38.000Z</time></trkpt>
        <trkpt lat="29.769553" lon="103.436816"><ele>945.4774</ele><time>2026-05-30T20:39:47.000Z</time></trkpt>
        <trkpt lat="29.769555" lon="103.436764"><ele>947.0574</ele><time>2026-05-30T20:39:57.000Z</time></trkpt>
        <trkpt lat="29.769514" lon="103.436738"><ele>947.78094</ele><time>2026-05-30T20:40:18.000Z</time></trkpt>
        <trkpt lat="29.769535" lon="103.436685"><ele>949.2172</ele><time>2026-05-30T20:40:37.000Z</time></trkpt>
        <trkpt lat="29.769491" lon="103.43667"><ele>951.81036</ele><time>2026-05-30T20:40:53.000Z</time></trkpt>
        <trkpt lat="29.769538" lon="103.436678"><ele>952.2206</ele><time>2026-05-30T20:41:00.000Z</time></trkpt>
        <trkpt lat="29.769593" lon="103.436681"><ele>952.55304</ele><time>2026-05-30T20:41:26.000Z</time></trkpt>
        <trkpt lat="29.769619" lon="103.436638"><ele>950.31085</ele><time>2026-05-30T20:41:32.000Z</time></trkpt>
        <trkpt lat="29.769653" lon="103.436597"><ele>950.0691</ele><time>2026-05-30T20:41:40.000Z</time></trkpt>
        <trkpt lat="29.769652" lon="103.43654"><ele>950.89435</ele><time>2026-05-30T20:41:49.000Z</time></trkpt>
        <trkpt lat="29.769717" lon="103.436504"><ele>951.9227</ele><time>2026-05-30T20:41:59.000Z</time></trkpt>
        <trkpt lat="29.769703" lon="103.436452"><ele>952.6474</ele><time>2026-05-30T20:42:05.000Z</time></trkpt>
        <trkpt lat="29.769704" lon="103.436392"><ele>953.182</ele><time>2026-05-30T20:42:13.000Z</time></trkpt>
        <trkpt lat="29.769699" lon="103.436337"><ele>953.0476</ele><time>2026-05-30T20:42:19.000Z</time></trkpt>
        <trkpt lat="29.769715" lon="103.436267"><ele>952.85547</ele><time>2026-05-30T20:43:04.000Z</time></trkpt>
        <trkpt lat="29.769701" lon="103.436319"><ele>954.34015</ele><time>2026-05-30T20:43:16.000Z</time></trkpt>
        <trkpt lat="29.769712" lon="103.436268"><ele>958.37866</ele><time>2026-05-30T20:44:03.000Z</time></trkpt>
        <trkpt lat="29.769738" lon="103.436221"><ele>958.1433</ele><time>2026-05-30T20:44:22.000Z</time></trkpt>
        <trkpt lat="29.76976" lon="103.436174"><ele>959.3492</ele><time>2026-05-30T20:45:02.000Z</time></trkpt>
        <trkpt lat="29.769783" lon="103.436117"><ele>957.6575</ele><time>2026-05-30T20:45:44.000Z</time></trkpt>
        <trkpt lat="29.769813" lon="103.436079"><ele>958.34186</ele><time>2026-05-30T20:45:55.000Z</time></trkpt>
        <trkpt lat="29.769849" lon="103.43612"><ele>963.3662</ele><time>2026-05-30T20:46:01.000Z</time></trkpt>
        <trkpt lat="29.769881" lon="103.436069"><ele>968.1156</ele><time>2026-05-30T20:47:11.000Z</time></trkpt>
        <trkpt lat="29.769895" lon="103.436011"><ele>972.9691</ele><time>2026-05-30T20:47:25.000Z</time></trkpt>
        <trkpt lat="29.769956" lon="103.436006"><ele>976.30524</ele><time>2026-05-30T20:47:33.000Z</time></trkpt>
        <trkpt lat="29.769987" lon="103.436045"><ele>977.45306</ele><time>2026-05-30T20:47:43.000Z</time></trkpt>
        <trkpt lat="29.770015" lon="103.436001"><ele>970.7581</ele><time>2026-05-30T20:48:16.000Z</time></trkpt>
        <trkpt lat="29.769971" lon="103.435983"><ele>979.99805</ele><time>2026-05-30T20:52:54.000Z</time></trkpt>
        <trkpt lat="29.769955" lon="103.435933"><ele>980.21875</ele><time>2026-05-30T20:53:04.000Z</time></trkpt>
        <trkpt lat="29.770003" lon="103.435939"><ele>984.65424</ele><time>2026-05-30T20:53:24.000Z</time></trkpt>
        <trkpt lat="29.770022" lon="103.435891"><ele>983.3498</ele><time>2026-05-30T20:53:57.000Z</time></trkpt>
        <trkpt lat="29.770054" lon="103.435844"><ele>989.9374</ele><time>2026-05-30T20:54:51.000Z</time></trkpt>
        <trkpt lat="29.77009" lon="103.435804"><ele>995.0823</ele><time>2026-05-30T20:55:10.000Z</time></trkpt>
        <trkpt lat="29.770133" lon="103.43578"><ele>995.31616</ele><time>2026-05-30T20:55:36.000Z</time></trkpt>
        <trkpt lat="29.770157" lon="103.435729"><ele>999.751</ele><time>2026-05-30T20:55:58.000Z</time></trkpt>
        <trkpt lat="29.770195" lon="103.435681"><ele>1000.4301</ele><time>2026-05-30T20:56:08.000Z</time></trkpt>
        <trkpt lat="29.770183" lon="103.435733"><ele>1002.1218</ele><time>2026-05-30T20:56:13.000Z</time></trkpt>
        <trkpt lat="29.770237" lon="103.435721"><ele>1002.0793</ele><time>2026-05-30T20:56:24.000Z</time></trkpt>
        <trkpt lat="29.770238" lon="103.435668"><ele>1000.653</ele><time>2026-05-30T20:56:30.000Z</time></trkpt>
        <trkpt lat="29.77025" lon="103.435612"><ele>1002.8489</ele><time>2026-05-30T20:56:55.000Z</time></trkpt>
        <trkpt lat="29.770216" lon="103.43557"><ele>1004.05096</ele><time>2026-05-30T20:57:03.000Z</time></trkpt>
        <trkpt lat="29.770167" lon="103.435547"><ele>1006.26874</ele><time>2026-05-30T20:57:11.000Z</time></trkpt>
        <trkpt lat="29.770156" lon="103.435486"><ele>1009.1466</ele><time>2026-05-30T20:57:25.000Z</time></trkpt>
        <trkpt lat="29.770106" lon="103.435486"><ele>1010.1441</ele><time>2026-05-30T20:57:27.000Z</time></trkpt>
        <trkpt lat="29.770035" lon="103.435455"><ele>1013.27484</ele><time>2026-05-30T20:57:31.000Z</time></trkpt>
        <trkpt lat="29.769991" lon="103.435431"><ele>1018.2231</ele><time>2026-05-30T20:58:16.000Z</time></trkpt>
        <trkpt lat="29.769981" lon="103.435375"><ele>1019.21014</ele><time>2026-05-30T20:58:22.000Z</time></trkpt>
        <trkpt lat="29.769997" lon="103.435327"><ele>1021.8452</ele><time>2026-05-30T20:58:37.000Z</time></trkpt>
        <trkpt lat="29.76995" lon="103.43535"><ele>1023.0642</ele><time>2026-05-30T20:58:59.000Z</time></trkpt>
        <trkpt lat="29.769997" lon="103.43535"><ele>1024.1157</ele><time>2026-05-30T20:59:09.000Z</time></trkpt>
        <trkpt lat="29.769956" lon="103.435316"><ele>1022.16296</ele><time>2026-05-30T20:59:25.000Z</time></trkpt>
        <trkpt lat="29.769993" lon="103.435279"><ele>1021.5539</ele><time>2026-05-30T20:59:32.000Z</time></trkpt>
        <trkpt lat="29.769956" lon="103.435312"><ele>1024.7903</ele><time>2026-05-30T20:59:49.000Z</time></trkpt>
        <trkpt lat="29.769972" lon="103.435255"><ele>1031.0453</ele><time>2026-05-30T21:00:04.000Z</time></trkpt>
        <trkpt lat="29.769982" lon="103.435307"><ele>1028.6238</ele><time>2026-05-30T21:00:13.000Z</time></trkpt>
        <trkpt lat="29.76992" lon="103.435311"><ele>1025.232</ele><time>2026-05-30T21:01:00.000Z</time></trkpt>
        <trkpt lat="29.769965" lon="103.435301"><ele>1026.2351</ele><time>2026-05-30T21:01:20.000Z</time></trkpt>
        <trkpt lat="29.769923" lon="103.435276"><ele>1026.6711</ele><time>2026-05-30T21:01:36.000Z</time></trkpt>
        <trkpt lat="29.769936" lon="103.4352"><ele>1027.0402</ele><time>2026-05-30T21:01:55.000Z</time></trkpt>
        <trkpt lat="29.769958" lon="103.435153"><ele>1027.1141</ele><time>2026-05-30T21:02:00.000Z</time></trkpt>
        <trkpt lat="29.769955" lon="103.435095"><ele>1027.7979</ele><time>2026-05-30T21:02:10.000Z</time></trkpt>
        <trkpt lat="29.769952" lon="103.435042"><ele>1026.1997</ele><time>2026-05-30T21:02:19.000Z</time></trkpt>
        <trkpt lat="29.769943" lon="103.434987"><ele>1025.8745</ele><time>2026-05-30T21:02:25.000Z</time></trkpt>
        <trkpt lat="29.769971" lon="103.434935"><ele>1027.5748</ele><time>2026-05-30T21:02:35.000Z</time></trkpt>
        <trkpt lat="29.769958" lon="103.434884"><ele>1026.9264</ele><time>2026-05-30T21:02:42.000Z</time></trkpt>
        <trkpt lat="29.769931" lon="103.434831"><ele>1026.0774</ele><time>2026-05-30T21:02:51.000Z</time></trkpt>
        <trkpt lat="29.769891" lon="103.4348"><ele>1026.4088</ele><time>2026-05-30T21:02:57.000Z</time></trkpt>
        <trkpt lat="29.769903" lon="103.434735"><ele>1028.8165</ele><time>2026-05-30T21:03:05.000Z</time></trkpt>
        <trkpt lat="29.769858" lon="103.434712"><ele>1028.6646</ele><time>2026-05-30T21:03:09.000Z</time></trkpt>
        <trkpt lat="29.769849" lon="103.434659"><ele>1029.9608</ele><time>2026-05-30T21:03:17.000Z</time></trkpt>
        <trkpt lat="29.76978" lon="103.434645"><ele>1033.2269</ele><time>2026-05-30T21:03:32.000Z</time></trkpt>
        <trkpt lat="29.769829" lon="103.43458"><ele>1034.7693</ele><time>2026-05-30T21:03:55.000Z</time></trkpt>
        <trkpt lat="29.769783" lon="103.434611"><ele>1036.0104</ele><time>2026-05-30T21:04:10.000Z</time></trkpt>
        <trkpt lat="29.76979" lon="103.434681"><ele>1035.9916</ele><time>2026-05-30T21:04:30.000Z</time></trkpt>
        <trkpt lat="29.769804" lon="103.434632"><ele>1035.0778</ele><time>2026-05-30T21:04:59.000Z</time></trkpt>
      </trkseg>
      <trkseg>
        <trkpt lat="29.769903" lon="103.434121"><ele>1048.4583</ele><time>2026-05-30T21:17:45.000Z</time></trkpt>
        <trkpt lat="29.769882" lon="103.434073"><ele>1048.2303</ele><time>2026-05-30T21:17:53.000Z</time></trkpt>
        <trkpt lat="29.769855" lon="103.434029"><ele>1051.0117</ele><time>2026-05-30T21:18:05.000Z</time></trkpt>
        <trkpt lat="29.769862" lon="103.433972"><ele>1053.3129</ele><time>2026-05-30T21:18:17.000Z</time></trkpt>
        <trkpt lat="29.76988" lon="103.433907"><ele>1052.1827</ele><time>2026-05-30T21:18:24.000Z</time></trkpt>
        <trkpt lat="29.769865" lon="103.433851"><ele>1054.6292</ele><time>2026-05-30T21:18:40.000Z</time></trkpt>
        <trkpt lat="29.76981" lon="103.433852"><ele>1054.7683</ele><time>2026-05-30T21:18:46.000Z</time></trkpt>
        <trkpt lat="29.769764" lon="103.433857"><ele>1055.8662</ele><time>2026-05-30T21:18:59.000Z</time></trkpt>
        <trkpt lat="29.769727" lon="103.43389"><ele>1055.5862</ele><time>2026-05-30T21:19:04.000Z</time></trkpt>
        <trkpt lat="29.769674" lon="103.433867"><ele>1056.151</ele><time>2026-05-30T21:19:14.000Z</time></trkpt>
        <trkpt lat="29.769619" lon="103.433895"><ele>1057.78</ele><time>2026-05-30T21:19:28.000Z</time></trkpt>
        <trkpt lat="29.769581" lon="103.433924"><ele>1058.8934</ele><time>2026-05-30T21:19:32.000Z</time></trkpt>
        <trkpt lat="29.769529" lon="103.433943"><ele>1061.9066</ele><time>2026-05-30T21:19:44.000Z</time></trkpt>
        <trkpt lat="29.769493" lon="103.433981"><ele>1061.1042</ele><time>2026-05-30T21:19:51.000Z</time></trkpt>
        <trkpt lat="29.76946" lon="103.43403"><ele>1062.2188</ele><time>2026-05-30T21:20:02.000Z</time></trkpt>
        <trkpt lat="29.769415" lon="103.434048"><ele>1063.9982</ele><time>2026-05-30T21:20:10.000Z</time></trkpt>
        <trkpt lat="29.769369" lon="103.434043"><ele>1066.343</ele><time>2026-05-30T21:20:22.000Z</time></trkpt>
        <trkpt lat="29.769355" lon="103.433985"><ele>1066.5674</ele><time>2026-05-30T21:20:45.000Z</time></trkpt>
        <trkpt lat="29.769299" lon="103.433975"><ele>1065.9371</ele><time>2026-05-30T21:20:49.000Z</time></trkpt>
        <trkpt lat="29.769246" lon="103.433988"><ele>1067.8657</ele><time>2026-05-30T21:20:53.000Z</time></trkpt>
        <trkpt lat="29.769203" lon="103.433956"><ele>1066.9933</ele><time>2026-05-30T21:21:00.000Z</time></trkpt>
        <trkpt lat="29.769159" lon="103.433969"><ele>1066.7015</ele><time>2026-05-30T21:21:04.000Z</time></trkpt>
        <trkpt lat="29.769111" lon="103.433958"><ele>1065.7078</ele><time>2026-05-30T21:21:11.000Z</time></trkpt>
        <trkpt lat="29.769088" lon="103.43391"><ele>1064.8041</ele><time>2026-05-30T21:21:16.000Z</time></trkpt>
        <trkpt lat="29.769073" lon="103.433859"><ele>1065.6836</ele><time>2026-05-30T21:21:24.000Z</time></trkpt>
        <trkpt lat="29.769028" lon="103.433843"><ele>1064.9224</ele><time>2026-05-30T21:21:30.000Z</time></trkpt>
        <trkpt lat="29.768985" lon="103.433821"><ele>1063.4149</ele><time>2026-05-30T21:21:36.000Z</time></trkpt>
        <trkpt lat="29.768948" lon="103.433778"><ele>1062.3383</ele><time>2026-05-30T21:21:42.000Z</time></trkpt>
        <trkpt lat="29.768895" lon="103.433756"><ele>1061.5117</ele><time>2026-05-30T21:21:49.000Z</time></trkpt>
        <trkpt lat="29.768854" lon="103.433723"><ele>1062.05</ele><time>2026-05-30T21:21:57.000Z</time></trkpt>
        <trkpt lat="29.768815" lon="103.433689"><ele>1061.9125</ele><time>2026-05-30T21:22:04.000Z</time></trkpt>
        <trkpt lat="29.768772" lon="103.433656"><ele>1065.6508</ele><time>2026-05-30T21:22:19.000Z</time></trkpt>
        <trkpt lat="29.768751" lon="103.4336"><ele>1064.7723</ele><time>2026-05-30T21:22:25.000Z</time></trkpt>
        <trkpt lat="29.768756" lon="103.433548"><ele>1066.0215</ele><time>2026-05-30T21:22:32.000Z</time></trkpt>
        <trkpt lat="29.768715" lon="103.433526"><ele>1067.1423</ele><time>2026-05-30T21:22:44.000Z</time></trkpt>
        <trkpt lat="29.768667" lon="103.433509"><ele>1067.3035</ele><time>2026-05-30T21:22:53.000Z</time></trkpt>
        <trkpt lat="29.768618" lon="103.433509"><ele>1066.8287</ele><time>2026-05-30T21:23:00.000Z</time></trkpt>
        <trkpt lat="29.768566" lon="103.433501"><ele>1067.2491</ele><time>2026-05-30T21:23:08.000Z</time></trkpt>
        <trkpt lat="29.768529" lon="103.433463"><ele>1069.0801</ele><time>2026-05-30T21:23:21.000Z</time></trkpt>
        <trkpt lat="29.768484" lon="103.43344"><ele>1069.1266</ele><time>2026-05-30T21:23:33.000Z</time></trkpt>
        <trkpt lat="29.768438" lon="103.43343"><ele>1069.6171</ele><time>2026-05-30T21:23:42.000Z</time></trkpt>
        <trkpt lat="29.768391" lon="103.43341"><ele>1069.6836</ele><time>2026-05-30T21:23:50.000Z</time></trkpt>
        <trkpt lat="29.768344" lon="103.433416"><ele>1071.6593</ele><time>2026-05-30T21:24:03.000Z</time></trkpt>
        <trkpt lat="29.768292" lon="103.433419"><ele>1074.1035</ele><time>2026-05-30T21:24:16.000Z</time></trkpt>
        <trkpt lat="29.768249" lon="103.433403"><ele>1075.4767</ele><time>2026-05-30T21:24:31.000Z</time></trkpt>
        <trkpt lat="29.768201" lon="103.433407"><ele>1075.5774</ele><time>2026-05-30T21:24:39.000Z</time></trkpt>
        <trkpt lat="29.76814" lon="103.433406"><ele>1076.0035</ele><time>2026-05-30T21:24:50.000Z</time></trkpt>
        <trkpt lat="29.768096" lon="103.433424"><ele>1078.1865</ele><time>2026-05-30T21:25:08.000Z</time></trkpt>
        <trkpt lat="29.76805" lon="103.433428"><ele>1079.829</ele><time>2026-05-30T21:25:25.000Z</time></trkpt>
        <trkpt lat="29.768005" lon="103.433407"><ele>1078.9312</ele><time>2026-05-30T21:25:38.000Z</time></trkpt>
        <trkpt lat="29.767958" lon="103.433407"><ele>1079.3646</ele><time>2026-05-30T21:25:47.000Z</time></trkpt>
        <trkpt lat="29.767911" lon="103.433412"><ele>1080.9229</ele><time>2026-05-30T21:25:53.000Z</time></trkpt>
        <trkpt lat="29.767864" lon="103.433422"><ele>1082.7675</ele><time>2026-05-30T21:25:59.000Z</time></trkpt>
        <trkpt lat="29.767813" lon="103.433447"><ele>1085.2859</ele><time>2026-05-30T21:26:05.000Z</time></trkpt>
        <trkpt lat="29.767763" lon="103.433448"><ele>1088.6273</ele><time>2026-05-30T21:26:14.000Z</time></trkpt>
        <trkpt lat="29.767718" lon="103.433417"><ele>1091.3109</ele><time>2026-05-30T21:26:26.000Z</time></trkpt>
        <trkpt lat="29.767671" lon="103.433421"><ele>1090.7488</ele><time>2026-05-30T21:26:32.000Z</time></trkpt>
        <trkpt lat="29.767631" lon="103.433391"><ele>1092.1252</ele><time>2026-05-30T21:26:41.000Z</time></trkpt>
        <trkpt lat="29.767582" lon="103.433377"><ele>1092.7191</ele><time>2026-05-30T21:26:52.000Z</time></trkpt>
        <trkpt lat="29.767536" lon="103.43337"><ele>1095.4358</ele><time>2026-05-30T21:27:06.000Z</time></trkpt>
        <trkpt lat="29.767497" lon="103.433411"><ele>1098.7534</ele><time>2026-05-30T21:27:19.000Z</time></trkpt>
        <trkpt lat="29.767463" lon="103.43345"><ele>1100.5126</ele><time>2026-05-30T21:27:32.000Z</time></trkpt>
        <trkpt lat="29.767412" lon="103.433452"><ele>1100.373</ele><time>2026-05-30T21:27:37.000Z</time></trkpt>
        <trkpt lat="29.767371" lon="103.433422"><ele>1099.7509</ele><time>2026-05-30T21:27:43.000Z</time></trkpt>
        <trkpt lat="29.767321" lon="103.433399"><ele>1099.9503</ele><time>2026-05-30T21:27:47.000Z</time></trkpt>
        <trkpt lat="29.767284" lon="103.43336"><ele>1099.5859</ele><time>2026-05-30T21:27:53.000Z</time></trkpt>
        <trkpt lat="29.767242" lon="103.433332"><ele>1099.7692</ele><time>2026-05-30T21:27:58.000Z</time></trkpt>
        <trkpt lat="29.767203" lon="103.433294"><ele>1099.2666</ele><time>2026-05-30T21:28:04.000Z</time></trkpt>
        <trkpt lat="29.767163" lon="103.433269"><ele>1100.6763</ele><time>2026-05-30T21:28:13.000Z</time></trkpt>
        <trkpt lat="29.767133" lon="103.433227"><ele>1099.8789</ele><time>2026-05-30T21:28:27.000Z</time></trkpt>
        <trkpt lat="29.767101" lon="103.433178"><ele>1099.9728</ele><time>2026-05-30T21:28:35.000Z</time></trkpt>
        <trkpt lat="29.767065" lon="103.433138"><ele>1099.3748</ele><time>2026-05-30T21:28:42.000Z</time></trkpt>
        <trkpt lat="29.767019" lon="103.433119"><ele>1097.885</ele><time>2026-05-30T21:28:51.000Z</time></trkpt>
        <trkpt lat="29.766964" lon="103.433113"><ele>1097.7042</ele><time>2026-05-30T21:28:55.000Z</time></trkpt>
        <trkpt lat="29.766913" lon="103.4331"><ele>1097.8341</ele><time>2026-05-30T21:29:02.000Z</time></trkpt>
        <trkpt lat="29.766863" lon="103.433095"><ele>1097.6636</ele><time>2026-05-30T21:29:06.000Z</time></trkpt>
        <trkpt lat="29.766814" lon="103.433069"><ele>1097.9042</ele><time>2026-05-30T21:29:11.000Z</time></trkpt>
        <trkpt lat="29.766786" lon="103.433027"><ele>1097.1008</ele><time>2026-05-30T21:29:15.000Z</time></trkpt>
        <trkpt lat="29.766747" lon="103.432996"><ele>1097.4485</ele><time>2026-05-30T21:29:20.000Z</time></trkpt>
        <trkpt lat="29.766736" lon="103.43294"><ele>1097.4269</ele><time>2026-05-30T21:29:25.000Z</time></trkpt>
        <trkpt lat="29.76674" lon="103.432884"><ele>1096.6692</ele><time>2026-05-30T21:29:30.000Z</time></trkpt>
        <trkpt lat="29.766736" lon="103.43282"><ele>1096.8191</ele><time>2026-05-30T21:29:35.000Z</time></trkpt>
        <trkpt lat="29.766745" lon="103.432769"><ele>1097.7909</ele><time>2026-05-30T21:29:40.000Z</time></trkpt>
        <trkpt lat="29.766743" lon="103.432717"><ele>1097.6173</ele><time>2026-05-30T21:29:45.000Z</time></trkpt>
        <trkpt lat="29.766752" lon="103.432666"><ele>1098.5212</ele><time>2026-05-30T21:29:49.000Z</time></trkpt>
        <trkpt lat="29.766757" lon="103.432609"><ele>1099.8313</ele><time>2026-05-30T21:29:54.000Z</time></trkpt>
        <trkpt lat="29.766763" lon="103.432548"><ele>1098.5796</ele><time>2026-05-30T21:30:00.000Z</time></trkpt>
        <trkpt lat="29.766748" lon="103.432496"><ele>1099.6068</ele><time>2026-05-30T21:30:06.000Z</time></trkpt>
        <trkpt lat="29.766721" lon="103.432444"><ele>1100.0258</ele><time>2026-05-30T21:30:13.000Z</time></trkpt>
        <trkpt lat="29.766687" lon="103.43241"><ele>1100.4526</ele><time>2026-05-30T21:30:19.000Z</time></trkpt>
        <trkpt lat="29.766637" lon="103.432383"><ele>1101.1201</ele><time>2026-05-30T21:30:25.000Z</time></trkpt>
        <trkpt lat="29.76659" lon="103.432364"><ele>1101.5117</ele><time>2026-05-30T21:30:31.000Z</time></trkpt>
        <trkpt lat="29.766542" lon="103.432351"><ele>1103.4141</ele><time>2026-05-30T21:30:36.000Z</time></trkpt>
        <trkpt lat="29.766498" lon="103.432332"><ele>1105.129</ele><time>2026-05-30T21:30:44.000Z</time></trkpt>
        <trkpt lat="29.766461" lon="103.432298"><ele>1105.0907</ele><time>2026-05-30T21:30:51.000Z</time></trkpt>
        <trkpt lat="29.766422" lon="103.432266"><ele>1105.6309</ele><time>2026-05-30T21:31:00.000Z</time></trkpt>
        <trkpt lat="29.766379" lon="103.432241"><ele>1105.2719</ele><time>2026-05-30T21:31:06.000Z</time></trkpt>
        <trkpt lat="29.766328" lon="103.432234"><ele>1105.3523</ele><time>2026-05-30T21:31:12.000Z</time></trkpt>
        <trkpt lat="29.766283" lon="103.432243"><ele>1105.498</ele><time>2026-05-30T21:31:18.000Z</time></trkpt>
        <trkpt lat="29.766235" lon="103.432241"><ele>1105.3501</ele><time>2026-05-30T21:31:23.000Z</time></trkpt>
        <trkpt lat="29.766184" lon="103.432217"><ele>1105.0593</ele><time>2026-05-30T21:31:28.000Z</time></trkpt>
        <trkpt lat="29.766146" lon="103.43217"><ele>1104.6401</ele><time>2026-05-30T21:31:34.000Z</time></trkpt>
        <trkpt lat="29.766123" lon="103.432113"><ele>1104.3346</ele><time>2026-05-30T21:31:39.000Z</time></trkpt>
        <trkpt lat="29.766095" lon="103.432059"><ele>1104.5127</ele><time>2026-05-30T21:31:49.000Z</time></trkpt>
        <trkpt lat="29.76606" lon="103.432007"><ele>1104.9136</ele><time>2026-05-30T21:31:55.000Z</time></trkpt>
        <trkpt lat="29.766032" lon="103.43196"><ele>1105.1824</ele><time>2026-05-30T21:32:00.000Z</time></trkpt>
        <trkpt lat="29.76599" lon="103.431934"><ele>1107.1715</ele><time>2026-05-30T21:32:06.000Z</time></trkpt>
        <trkpt lat="29.765961" lon="103.431895"><ele>1108.2808</ele><time>2026-05-30T21:32:11.000Z</time></trkpt>
        <trkpt lat="29.765946" lon="103.431842"><ele>1107.1489</ele><time>2026-05-30T21:32:16.000Z</time></trkpt>
        <trkpt lat="29.765928" lon="103.431784"><ele>1108.9738</ele><time>2026-05-30T21:32:23.000Z</time></trkpt>
        <trkpt lat="29.765907" lon="103.431729"><ele>1109.6222</ele><time>2026-05-30T21:32:29.000Z</time></trkpt>
        <trkpt lat="29.765876" lon="103.431681"><ele>1110.8611</ele><time>2026-05-30T21:32:35.000Z</time></trkpt>
        <trkpt lat="29.765845" lon="103.431637"><ele>1110.224</ele><time>2026-05-30T21:32:42.000Z</time></trkpt>
        <trkpt lat="29.765801" lon="103.431616"><ele>1112.4421</ele><time>2026-05-30T21:32:59.000Z</time></trkpt>
        <trkpt lat="29.765772" lon="103.431571"><ele>1112.8036</ele><time>2026-05-30T21:33:09.000Z</time></trkpt>
        <trkpt lat="29.765733" lon="103.431543"><ele>1114.6937</ele><time>2026-05-30T21:33:17.000Z</time></trkpt>
        <trkpt lat="29.765685" lon="103.431521"><ele>1115.2732</ele><time>2026-05-30T21:33:27.000Z</time></trkpt>
        <trkpt lat="29.765638" lon="103.431513"><ele>1116.7076</ele><time>2026-05-30T21:33:34.000Z</time></trkpt>
        <trkpt lat="29.765593" lon="103.431506"><ele>1117.8778</ele><time>2026-05-30T21:33:40.000Z</time></trkpt>
        <trkpt lat="29.765538" lon="103.431509"><ele>1119.6099</ele><time>2026-05-30T21:33:49.000Z</time></trkpt>
        <trkpt lat="29.765493" lon="103.431493"><ele>1122.9095</ele><time>2026-05-30T21:34:09.000Z</time></trkpt>
        <trkpt lat="29.765445" lon="103.431487"><ele>1123.715</ele><time>2026-05-30T21:34:16.000Z</time></trkpt>
        <trkpt lat="29.765402" lon="103.431467"><ele>1125.5028</ele><time>2026-05-30T21:35:02.000Z</time></trkpt>
        <trkpt lat="29.765356" lon="103.431486"><ele>1126.1967</ele><time>2026-05-30T21:35:10.000Z</time></trkpt>
        <trkpt lat="29.765298" lon="103.431497"><ele>1126.4568</ele><time>2026-05-30T21:35:18.000Z</time></trkpt>
        <trkpt lat="29.765246" lon="103.431495"><ele>1126.7002</ele><time>2026-05-30T21:35:26.000Z</time></trkpt>
        <trkpt lat="29.7652" lon="103.431497"><ele>1128.1792</ele><time>2026-05-30T21:35:35.000Z</time></trkpt>
        <trkpt lat="29.76515" lon="103.431487"><ele>1129.1409</ele><time>2026-05-30T21:35:53.000Z</time></trkpt>
        <trkpt lat="29.765103" lon="103.431487"><ele>1130.9075</ele><time>2026-05-30T21:36:03.000Z</time></trkpt>
        <trkpt lat="29.765067" lon="103.431449"><ele>1132.2021</ele><time>2026-05-30T21:36:15.000Z</time></trkpt>
        <trkpt lat="29.765021" lon="103.431437"><ele>1133.9275</ele><time>2026-05-30T21:36:26.000Z</time></trkpt>
        <trkpt lat="29.764998" lon="103.431381"><ele>1133.4634</ele><time>2026-05-30T21:36:35.000Z</time></trkpt>
        <trkpt lat="29.764955" lon="103.43136"><ele>1132.2751</ele><time>2026-05-30T21:36:42.000Z</time></trkpt>
        <trkpt lat="29.764933" lon="103.431307"><ele>1131.8585</ele><time>2026-05-30T21:36:56.000Z</time></trkpt>
        <trkpt lat="29.764901" lon="103.431264"><ele>1134.0144</ele><time>2026-05-30T21:37:11.000Z</time></trkpt>
        <trkpt lat="29.764873" lon="103.431224"><ele>1135.4043</ele><time>2026-05-30T21:37:19.000Z</time></trkpt>
        <trkpt lat="29.764843" lon="103.431182"><ele>1136.6196</ele><time>2026-05-30T21:37:29.000Z</time></trkpt>
        <trkpt lat="29.7648" lon="103.431149"><ele>1136.91</ele><time>2026-05-30T21:37:37.000Z</time></trkpt>
        <trkpt lat="29.764757" lon="103.431125"><ele>1138.1577</ele><time>2026-05-30T21:37:47.000Z</time></trkpt>
        <trkpt lat="29.764711" lon="103.431101"><ele>1139.1506</ele><time>2026-05-30T21:37:54.000Z</time></trkpt>
        <trkpt lat="29.764669" lon="103.431073"><ele>1140.1711</ele><time>2026-05-30T21:38:00.000Z</time></trkpt>
        <trkpt lat="29.76462" lon="103.431078"><ele>1140.2219</ele><time>2026-05-30T21:38:07.000Z</time></trkpt>
        <trkpt lat="29.764575" lon="103.43109"><ele>1140.312</ele><time>2026-05-30T21:38:14.000Z</time></trkpt>
        <trkpt lat="29.764527" lon="103.431077"><ele>1139.5808</ele><time>2026-05-30T21:38:20.000Z</time></trkpt>
        <trkpt lat="29.764474" lon="103.431048"><ele>1140.3452</ele><time>2026-05-30T21:38:26.000Z</time></trkpt>
        <trkpt lat="29.764434" lon="103.43101"><ele>1139.2855</ele><time>2026-05-30T21:38:37.000Z</time></trkpt>
        <trkpt lat="29.764434" lon="103.430959"><ele>1138.363</ele><time>2026-05-30T21:38:42.000Z</time></trkpt>
        <trkpt lat="29.764426" lon="103.430897"><ele>1138.7949</ele><time>2026-05-30T21:38:49.000Z</time></trkpt>
        <trkpt lat="29.764432" lon="103.430844"><ele>1140.7511</ele><time>2026-05-30T21:38:54.000Z</time></trkpt>
        <trkpt lat="29.764454" lon="103.430789"><ele>1140.6306</ele><time>2026-05-30T21:39:01.000Z</time></trkpt>
        <trkpt lat="29.764487" lon="103.430736"><ele>1139.6298</ele><time>2026-05-30T21:39:07.000Z</time></trkpt>
        <trkpt lat="29.764514" lon="103.43069"><ele>1139.3025</ele><time>2026-05-30T21:39:12.000Z</time></trkpt>
        <trkpt lat="29.764535" lon="103.430641"><ele>1137.1562</ele><time>2026-05-30T21:39:19.000Z</time></trkpt>
        <trkpt lat="29.764564" lon="103.430599"><ele>1136.861</ele><time>2026-05-30T21:39:26.000Z</time></trkpt>
        <trkpt lat="29.764586" lon="103.430538"><ele>1136.1084</ele><time>2026-05-30T21:39:32.000Z</time></trkpt>
        <trkpt lat="29.764602" lon="103.430482"><ele>1133.2706</ele><time>2026-05-30T21:39:38.000Z</time></trkpt>
        <trkpt lat="29.764578" lon="103.43042"><ele>1133.6954</ele><time>2026-05-30T21:39:58.000Z</time></trkpt>
        <trkpt lat="29.764536" lon="103.430392"><ele>1133.5933</ele><time>2026-05-30T21:40:04.000Z</time></trkpt>
        <trkpt lat="29.764499" lon="103.430346"><ele>1131.818</ele><time>2026-05-30T21:40:11.000Z</time></trkpt>
        <trkpt lat="29.764466" lon="103.430309"><ele>1130.8406</ele><time>2026-05-30T21:40:18.000Z</time></trkpt>
        <trkpt lat="29.764448" lon="103.430252"><ele>1131.1964</ele><time>2026-05-30T21:40:23.000Z</time></trkpt>
        <trkpt lat="29.764422" lon="103.430203"><ele>1129.1908</ele><time>2026-05-30T21:40:33.000Z</time></trkpt>
        <trkpt lat="29.764401" lon="103.430155"><ele>1127.3832</ele><time>2026-05-30T21:40:48.000Z</time></trkpt>
        <trkpt lat="29.764371" lon="103.430081"><ele>1127.276</ele><time>2026-05-30T21:41:01.000Z</time></trkpt>
        <trkpt lat="29.764381" lon="103.430028"><ele>1126.2965</ele><time>2026-05-30T21:41:08.000Z</time></trkpt>
        <trkpt lat="29.76439" lon="103.429975"><ele>1126.2457</ele><time>2026-05-30T21:41:14.000Z</time></trkpt>
        <trkpt lat="29.764411" lon="103.429917"><ele>1128.1909</ele><time>2026-05-30T21:41:22.000Z</time></trkpt>
        <trkpt lat="29.764418" lon="103.429862"><ele>1129.5815</ele><time>2026-05-30T21:41:28.000Z</time></trkpt>
        <trkpt lat="29.764435" lon="103.429814"><ele>1132.2201</ele><time>2026-05-30T21:41:35.000Z</time></trkpt>
        <trkpt lat="29.764463" lon="103.429762"><ele>1132.2155</ele><time>2026-05-30T21:41:41.000Z</time></trkpt>
        <trkpt lat="29.764503" lon="103.429723"><ele>1131.3873</ele><time>2026-05-30T21:41:50.000Z</time></trkpt>
        <trkpt lat="29.764524" lon="103.429676"><ele>1129.7474</ele><time>2026-05-30T21:42:07.000Z</time></trkpt>
        <trkpt lat="29.764536" lon="103.429623"><ele>1128.607</ele><time>2026-05-30T21:42:14.000Z</time></trkpt>
        <trkpt lat="29.76457" lon="103.429582"><ele>1126.9127</ele><time>2026-05-30T21:42:24.000Z</time></trkpt>
        <trkpt lat="29.764587" lon="103.429527"><ele>1127.4773</ele><time>2026-05-30T21:42:30.000Z</time></trkpt>
        <trkpt lat="29.764612" lon="103.429478"><ele>1127.633</ele><time>2026-05-30T21:42:36.000Z</time></trkpt>
        <trkpt lat="29.764632" lon="103.429424"><ele>1128.0629</ele><time>2026-05-30T21:42:42.000Z</time></trkpt>
        <trkpt lat="29.764642" lon="103.429373"><ele>1128.226</ele><time>2026-05-30T21:42:48.000Z</time></trkpt>
        <trkpt lat="29.76466" lon="103.429322"><ele>1128.1455</ele><time>2026-05-30T21:42:54.000Z</time></trkpt>
        <trkpt lat="29.764677" lon="103.42927"><ele>1129.3605</ele><time>2026-05-30T21:43:00.000Z</time></trkpt>
        <trkpt lat="29.764709" lon="103.429229"><ele>1129.4938</ele><time>2026-05-30T21:43:05.000Z</time></trkpt>
        <trkpt lat="29.764744" lon="103.429189"><ele>1130.6106</ele><time>2026-05-30T21:43:12.000Z</time></trkpt>
        <trkpt lat="29.764762" lon="103.429136"><ele>1131.9637</ele><time>2026-05-30T21:43:19.000Z</time></trkpt>
        <trkpt lat="29.76478" lon="103.429073"><ele>1131.9148</ele><time>2026-05-30T21:43:27.000Z</time></trkpt>
        <trkpt lat="29.764815" lon="103.42902"><ele>1132.2297</ele><time>2026-05-30T21:43:34.000Z</time></trkpt>
        <trkpt lat="29.764836" lon="103.428969"><ele>1132.1931</ele><time>2026-05-30T21:43:39.000Z</time></trkpt>
        <trkpt lat="29.764852" lon="103.428915"><ele>1133.3334</ele><time>2026-05-30T21:43:45.000Z</time></trkpt>
        <trkpt lat="29.764844" lon="103.428857"><ele>1133.3806</ele><time>2026-05-30T21:43:53.000Z</time></trkpt>
        <trkpt lat="29.764846" lon="103.428798"><ele>1132.2655</ele><time>2026-05-30T21:43:58.000Z</time></trkpt>
        <trkpt lat="29.76486" lon="103.428746"><ele>1131.1057</ele><time>2026-05-30T21:44:03.000Z</time></trkpt>
        <trkpt lat="29.764854" lon="103.428674"><ele>1132.2655</ele><time>2026-05-30T21:44:08.000Z</time></trkpt>
        <trkpt lat="29.764858" lon="103.428617"><ele>1129.2887</ele><time>2026-05-30T21:44:16.000Z</time></trkpt>
        <trkpt lat="29.764856" lon="103.42856"><ele>1129.6113</ele><time>2026-05-30T21:44:21.000Z</time></trkpt>
        <trkpt lat="29.76484" lon="103.428507"><ele>1128.7963</ele><time>2026-05-30T21:44:26.000Z</time></trkpt>
        <trkpt lat="29.764806" lon="103.428454"><ele>1127.7119</ele><time>2026-05-30T21:44:31.000Z</time></trkpt>
        <trkpt lat="29.764772" lon="103.428411"><ele>1126.9172</ele><time>2026-05-30T21:44:36.000Z</time></trkpt>
        <trkpt lat="29.764736" lon="103.428379"><ele>1124.6521</ele><time>2026-05-30T21:44:42.000Z</time></trkpt>
        <trkpt lat="29.76469" lon="103.428343"><ele>1125.1406</ele><time>2026-05-30T21:44:50.000Z</time></trkpt>
        <trkpt lat="29.764647" lon="103.428311"><ele>1126.2598</ele><time>2026-05-30T21:44:57.000Z</time></trkpt>
        <trkpt lat="29.764619" lon="103.428352"><ele>1129.3794</ele><time>2026-05-30T21:45:10.000Z</time></trkpt>
        <trkpt lat="29.764599" lon="103.4283"><ele>1130.1316</ele><time>2026-05-30T21:45:25.000Z</time></trkpt>
        <trkpt lat="29.764655" lon="103.428313"><ele>1128.6976</ele><time>2026-05-30T21:46:34.000Z</time></trkpt>
        <trkpt lat="29.764704" lon="103.428319"><ele>1128.8798</ele><time>2026-05-30T21:46:38.000Z</time></trkpt>
        <trkpt lat="29.764751" lon="103.428326"><ele>1129.4093</ele><time>2026-05-30T21:46:44.000Z</time></trkpt>
        <trkpt lat="29.764706" lon="103.428325"><ele>1127.0957</ele><time>2026-05-30T21:46:58.000Z</time></trkpt>
        <trkpt lat="29.764665" lon="103.428296"><ele>1126.2281</ele><time>2026-05-30T21:47:04.000Z</time></trkpt>
        <trkpt lat="29.764618" lon="103.428299"><ele>1127.165</ele><time>2026-05-30T21:47:10.000Z</time></trkpt>
        <trkpt lat="29.764574" lon="103.428322"><ele>1127.285</ele><time>2026-05-30T21:48:24.000Z</time></trkpt>
        <trkpt lat="29.764529" lon="103.42831"><ele>1125.1521</ele><time>2026-05-30T21:48:41.000Z</time></trkpt>
        <trkpt lat="29.764489" lon="103.428341"><ele>1124.6808</ele><time>2026-05-30T21:48:49.000Z</time></trkpt>
        <trkpt lat="29.764443" lon="103.428306"><ele>1123.5099</ele><time>2026-05-30T21:48:53.000Z</time></trkpt>
        <trkpt lat="29.764395" lon="103.428291"><ele>1124.4478</ele><time>2026-05-30T21:48:57.000Z</time></trkpt>
        <trkpt lat="29.764353" lon="103.428272"><ele>1123.8448</ele><time>2026-05-30T21:49:03.000Z</time></trkpt>
        <trkpt lat="29.764321" lon="103.428233"><ele>1122.2334</ele><time>2026-05-30T21:49:08.000Z</time></trkpt>
        <trkpt lat="29.764286" lon="103.428198"><ele>1121.9773</ele><time>2026-05-30T21:49:13.000Z</time></trkpt>
        <trkpt lat="29.764269" lon="103.428143"><ele>1122.5184</ele><time>2026-05-30T21:49:18.000Z</time></trkpt>
        <trkpt lat="29.764261" lon="103.42809"><ele>1121.997</ele><time>2026-05-30T21:49:23.000Z</time></trkpt>
        <trkpt lat="29.764295" lon="103.428055"><ele>1119.5905</ele><time>2026-05-30T21:49:28.000Z</time></trkpt>
        <trkpt lat="29.764337" lon="103.428032"><ele>1118.0964</ele><time>2026-05-30T21:49:34.000Z</time></trkpt>
        <trkpt lat="29.764383" lon="103.428008"><ele>1117.0417</ele><time>2026-05-30T21:49:41.000Z</time></trkpt>
        <trkpt lat="29.764426" lon="103.427989"><ele>1116.0356</ele><time>2026-05-30T21:49:47.000Z</time></trkpt>
        <trkpt lat="29.764469" lon="103.428003"><ele>1113.1846</ele><time>2026-05-30T21:49:52.000Z</time></trkpt>
        <trkpt lat="29.764509" lon="103.427976"><ele>1113.1849</ele><time>2026-05-30T21:50:14.000Z</time></trkpt>
        <trkpt lat="29.764527" lon="103.427927"><ele>1113.5376</ele><time>2026-05-30T21:50:21.000Z</time></trkpt>
        <trkpt lat="29.764563" lon="103.427878"><ele>1110.5604</ele><time>2026-05-30T21:50:49.000Z</time></trkpt>
        <trkpt lat="29.764585" lon="103.427818"><ele>1110.1865</ele><time>2026-05-30T21:51:06.000Z</time></trkpt>
        <trkpt lat="29.76462" lon="103.427772"><ele>1108.2924</ele><time>2026-05-30T21:51:17.000Z</time></trkpt>
        <trkpt lat="29.764658" lon="103.427741"><ele>1107.871</ele><time>2026-05-30T21:51:23.000Z</time></trkpt>
        <trkpt lat="29.764684" lon="103.427697"><ele>1108.4061</ele><time>2026-05-30T21:51:29.000Z</time></trkpt>
        <trkpt lat="29.764699" lon="103.427644"><ele>1106.7234</ele><time>2026-05-30T21:51:37.000Z</time></trkpt>
        <trkpt lat="29.764704" lon="103.427588"><ele>1104.8893</ele><time>2026-05-30T21:51:45.000Z</time></trkpt>
        <trkpt lat="29.764723" lon="103.427538"><ele>1104.0881</ele><time>2026-05-30T21:51:49.000Z</time></trkpt>
        <trkpt lat="29.764728" lon="103.42748"><ele>1102.7739</ele><time>2026-05-30T21:51:55.000Z</time></trkpt>
        <trkpt lat="29.76476" lon="103.427438"><ele>1101.6434</ele><time>2026-05-30T21:52:02.000Z</time></trkpt>
        <trkpt lat="29.764787" lon="103.427387"><ele>1101.8154</ele><time>2026-05-30T21:52:08.000Z</time></trkpt>
        <trkpt lat="29.764804" lon="103.427337"><ele>1101.1436</ele><time>2026-05-30T21:52:14.000Z</time></trkpt>
        <trkpt lat="29.764815" lon="103.427281"><ele>1101.5878</ele><time>2026-05-30T21:52:20.000Z</time></trkpt>
        <trkpt lat="29.76478" lon="103.427325"><ele>1099.0468</ele><time>2026-05-30T21:52:44.000Z</time></trkpt>
        <trkpt lat="29.76474" lon="103.427367"><ele>1099.0365</ele><time>2026-05-30T21:52:56.000Z</time></trkpt>
        <trkpt lat="29.76469" lon="103.427364"><ele>1096.5801</ele><time>2026-05-30T21:53:05.000Z</time></trkpt>
        <trkpt lat="29.764641" lon="103.427372"><ele>1097.8168</ele><time>2026-05-30T21:53:16.000Z</time></trkpt>
        <trkpt lat="29.764594" lon="103.42735"><ele>1100.259</ele><time>2026-05-30T21:53:36.000Z</time></trkpt>
        <trkpt lat="29.764547" lon="103.427347"><ele>1102.9442</ele><time>2026-05-30T21:53:48.000Z</time></trkpt>
        <trkpt lat="29.764495" lon="103.427353"><ele>1103.7802</ele><time>2026-05-30T21:53:59.000Z</time></trkpt>
        <trkpt lat="29.764463" lon="103.427399"><ele>1104.3676</ele><time>2026-05-30T21:54:04.000Z</time></trkpt>
        <trkpt lat="29.764418" lon="103.4274"><ele>1105.0929</ele><time>2026-05-30T21:54:12.000Z</time></trkpt>
        <trkpt lat="29.764368" lon="103.427412"><ele>1105.4673</ele><time>2026-05-30T21:54:20.000Z</time></trkpt>
        <trkpt lat="29.764323" lon="103.427421"><ele>1106.1804</ele><time>2026-05-30T21:54:27.000Z</time></trkpt>
        <trkpt lat="29.764275" lon="103.427402"><ele>1107.2495</ele><time>2026-05-30T21:54:34.000Z</time></trkpt>
        <trkpt lat="29.764242" lon="103.427356"><ele>1107.1909</ele><time>2026-05-30T21:54:40.000Z</time></trkpt>
        <trkpt lat="29.764188" lon="103.427345"><ele>1109.1254</ele><time>2026-05-30T21:54:48.000Z</time></trkpt>
        <trkpt lat="29.764148" lon="103.427379"><ele>1109.0667</ele><time>2026-05-30T21:54:57.000Z</time></trkpt>
        <trkpt lat="29.76411" lon="103.427417"><ele>1109.1683</ele><time>2026-05-30T21:55:04.000Z</time></trkpt>
        <trkpt lat="29.764079" lon="103.427462"><ele>1109.6333</ele><time>2026-05-30T21:55:11.000Z</time></trkpt>
        <trkpt lat="29.764049" lon="103.427508"><ele>1109.4012</ele><time>2026-05-30T21:55:17.000Z</time></trkpt>
        <trkpt lat="29.764006" lon="103.427546"><ele>1109.6233</ele><time>2026-05-30T21:55:23.000Z</time></trkpt>
        <trkpt lat="29.763966" lon="103.427583"><ele>1108.6768</ele><time>2026-05-30T21:55:29.000Z</time></trkpt>
        <trkpt lat="29.763925" lon="103.427625"><ele>1107.8922</ele><time>2026-05-30T21:55:35.000Z</time></trkpt>
        <trkpt lat="29.763879" lon="103.427647"><ele>1107.8846</ele><time>2026-05-30T21:55:40.000Z</time></trkpt>
        <trkpt lat="29.763822" lon="103.427642"><ele>1108.468</ele><time>2026-05-30T21:55:45.000Z</time></trkpt>
        <trkpt lat="29.763779" lon="103.427617"><ele>1108.5607</ele><time>2026-05-30T21:55:51.000Z</time></trkpt>
        <trkpt lat="29.763761" lon="103.427569"><ele>1107.3676</ele><time>2026-05-30T21:55:56.000Z</time></trkpt>
        <trkpt lat="29.763734" lon="103.427517"><ele>1107.9009</ele><time>2026-05-30T21:56:01.000Z</time></trkpt>
        <trkpt lat="29.763725" lon="103.427461"><ele>1109.0791</ele><time>2026-05-30T21:56:07.000Z</time></trkpt>
        <trkpt lat="29.763707" lon="103.427408"><ele>1108.8901</ele><time>2026-05-30T21:56:11.000Z</time></trkpt>
        <trkpt lat="29.7637" lon="103.427342"><ele>1109.0524</ele><time>2026-05-30T21:56:18.000Z</time></trkpt>
        <trkpt lat="29.763683" lon="103.42728"><ele>1109.7004</ele><time>2026-05-30T21:56:24.000Z</time></trkpt>
        <trkpt lat="29.76367" lon="103.427228"><ele>1109.4082</ele><time>2026-05-30T21:56:28.000Z</time></trkpt>
        <trkpt lat="29.763672" lon="103.427175"><ele>1109.104</ele><time>2026-05-30T21:56:33.000Z</time></trkpt>
        <trkpt lat="29.76368" lon="103.42711"><ele>1108.6548</ele><time>2026-05-30T21:56:37.000Z</time></trkpt>
        <trkpt lat="29.763706" lon="103.427057"><ele>1109.7991</ele><time>2026-05-30T21:56:43.000Z</time></trkpt>
        <trkpt lat="29.763717" lon="103.426996"><ele>1108.0759</ele><time>2026-05-30T21:56:48.000Z</time></trkpt>
        <trkpt lat="29.763696" lon="103.426936"><ele>1107.3116</ele><time>2026-05-30T21:56:53.000Z</time></trkpt>
        <trkpt lat="29.763672" lon="103.42688"><ele>1105.785</ele><time>2026-05-30T21:56:57.000Z</time></trkpt>
        <trkpt lat="29.763658" lon="103.426825"><ele>1105.7352</ele><time>2026-05-30T21:57:03.000Z</time></trkpt>
        <trkpt lat="29.763649" lon="103.426769"><ele>1105.4341</ele><time>2026-05-30T21:57:08.000Z</time></trkpt>
        <trkpt lat="29.763603" lon="103.426743"><ele>1105.2487</ele><time>2026-05-30T21:57:13.000Z</time></trkpt>
        <trkpt lat="29.763557" lon="103.426726"><ele>1103.3801</ele><time>2026-05-30T21:57:20.000Z</time></trkpt>
        <trkpt lat="29.763511" lon="103.42673"><ele>1102.8254</ele><time>2026-05-30T21:57:32.000Z</time></trkpt>
        <trkpt lat="29.763464" lon="103.426725"><ele>1102.7218</ele><time>2026-05-30T21:57:36.000Z</time></trkpt>
        <trkpt lat="29.763417" lon="103.426725"><ele>1102.6035</ele><time>2026-05-30T21:57:41.000Z</time></trkpt>
        <trkpt lat="29.76337" lon="103.426716"><ele>1103.0889</ele><time>2026-05-30T21:57:45.000Z</time></trkpt>
        <trkpt lat="29.763326" lon="103.426698"><ele>1103.695</ele><time>2026-05-30T21:57:49.000Z</time></trkpt>
        <trkpt lat="29.763293" lon="103.426649"><ele>1104.7333</ele><time>2026-05-30T21:57:53.000Z</time></trkpt>
        <trkpt lat="29.763302" lon="103.426659"><ele>1103.8157</ele><time>2026-05-30T21:59:05.000Z</time></trkpt>
        <trkpt lat="29.763277" lon="103.426599"><ele>1103.1628</ele><time>2026-05-30T22:00:43.000Z</time></trkpt>
        <trkpt lat="29.763219" lon="103.426534"><ele>1102.9993</ele><time>2026-05-30T22:00:45.000Z</time></trkpt>
        <trkpt lat="29.763188" lon="103.426492"><ele>1103.1603</ele><time>2026-05-30T22:00:46.000Z</time></trkpt>
        <trkpt lat="29.763154" lon="103.426448"><ele>1103.0216</ele><time>2026-05-30T22:00:47.000Z</time></trkpt>
        <trkpt lat="29.763126" lon="103.426408"><ele>1103.5328</ele><time>2026-05-30T22:00:48.000Z</time></trkpt>
        <trkpt lat="29.763078" lon="103.426345"><ele>1103.6525</ele><time>2026-05-30T22:00:50.000Z</time></trkpt>
        <trkpt lat="29.763027" lon="103.426312"><ele>1103.5057</ele><time>2026-05-30T22:00:52.000Z</time></trkpt>
        <trkpt lat="29.762976" lon="103.426323"><ele>1109.7852</ele><time>2026-05-30T22:01:45.000Z</time></trkpt>
        <trkpt lat="29.762937" lon="103.426278"><ele>1109.5945</ele><time>2026-05-30T22:01:46.000Z</time></trkpt>
        <trkpt lat="29.762906" lon="103.426233"><ele>1107.767</ele><time>2026-05-30T22:01:47.000Z</time></trkpt>
        <trkpt lat="29.762862" lon="103.426175"><ele>1106.4575</ele><time>2026-05-30T22:01:50.000Z</time></trkpt>
        <trkpt lat="29.762824" lon="103.426127"><ele>1106.7911</ele><time>2026-05-30T22:01:51.000Z</time></trkpt>
        <trkpt lat="29.76278" lon="103.42605"><ele>1108.0238</ele><time>2026-05-30T22:01:52.000Z</time></trkpt>
        <trkpt lat="29.762748" lon="103.425971"><ele>1109.1633</ele><time>2026-05-30T22:01:53.000Z</time></trkpt>
        <trkpt lat="29.762714" lon="103.425894"><ele>1110.329</ele><time>2026-05-30T22:01:54.000Z</time></trkpt>
        <trkpt lat="29.762694" lon="103.425824"><ele>1111.2418</ele><time>2026-05-30T22:01:55.000Z</time></trkpt>
        <trkpt lat="29.762671" lon="103.425761"><ele>1111.1985</ele><time>2026-05-30T22:01:56.000Z</time></trkpt>
        <trkpt lat="29.762649" lon="103.425694"><ele>1111.7764</ele><time>2026-05-30T22:01:57.000Z</time></trkpt>
        <trkpt lat="29.762641" lon="103.425628"><ele>1111.9629</ele><time>2026-05-30T22:01:58.000Z</time></trkpt>
        <trkpt lat="29.762613" lon="103.425539"><ele>1113.3174</ele><time>2026-05-30T22:02:00.000Z</time></trkpt>
        <trkpt lat="29.762568" lon="103.425479"><ele>1114.325</ele><time>2026-05-30T22:02:03.000Z</time></trkpt>
        <trkpt lat="29.762508" lon="103.425468"><ele>1115.3516</ele><time>2026-05-30T22:02:04.000Z</time></trkpt>
        <trkpt lat="29.762459" lon="103.42547"><ele>1115.3857</ele><time>2026-05-30T22:02:05.000Z</time></trkpt>
        <trkpt lat="29.762391" lon="103.425461"><ele>1115.524</ele><time>2026-05-30T22:02:06.000Z</time></trkpt>
        <trkpt lat="29.76233" lon="103.425463"><ele>1115.2694</ele><time>2026-05-30T22:02:07.000Z</time></trkpt>
        <trkpt lat="29.762254" lon="103.425472"><ele>1115.0604</ele><time>2026-05-30T22:02:08.000Z</time></trkpt>
        <trkpt lat="29.762209" lon="103.425485"><ele>1115.1508</ele><time>2026-05-30T22:02:09.000Z</time></trkpt>
        <trkpt lat="29.762134" lon="103.425496"><ele>1114.9935</ele><time>2026-05-30T22:02:10.000Z</time></trkpt>
        <trkpt lat="29.762069" lon="103.425502"><ele>1114.563</ele><time>2026-05-30T22:02:11.000Z</time></trkpt>
        <trkpt lat="29.762018" lon="103.425516"><ele>1113.4308</ele><time>2026-05-30T22:02:12.000Z</time></trkpt>
        <trkpt lat="29.76193" lon="103.425493"><ele>1113.1908</ele><time>2026-05-30T22:02:14.000Z</time></trkpt>
        <trkpt lat="29.761898" lon="103.425406"><ele>1114.1328</ele><time>2026-05-30T22:02:16.000Z</time></trkpt>
        <trkpt lat="29.761913" lon="103.425349"><ele>1114.7916</ele><time>2026-05-30T22:02:17.000Z</time></trkpt>
        <trkpt lat="29.761949" lon="103.425302"><ele>1115.5645</ele><time>2026-05-30T22:02:18.000Z</time></trkpt>
        <trkpt lat="29.761988" lon="103.425258"><ele>1116.0928</ele><time>2026-05-30T22:02:19.000Z</time></trkpt>
        <trkpt lat="29.762018" lon="103.42521"><ele>1117.2622</ele><time>2026-05-30T22:02:20.000Z</time></trkpt>
        <trkpt lat="29.762047" lon="103.425115"><ele>1118.4049</ele><time>2026-05-30T22:02:22.000Z</time></trkpt>
        <trkpt lat="29.762043" lon="103.425056"><ele>1119.0581</ele><time>2026-05-30T22:02:23.000Z</time></trkpt>
        <trkpt lat="29.762029" lon="103.424995"><ele>1120.3937</ele><time>2026-05-30T22:02:24.000Z</time></trkpt>
        <trkpt lat="29.762011" lon="103.424942"><ele>1121.8849</ele><time>2026-05-30T22:02:25.000Z</time></trkpt>
        <trkpt lat="29.761975" lon="103.424889"><ele>1123.3188</ele><time>2026-05-30T22:02:26.000Z</time></trkpt>
        <trkpt lat="29.761933" lon="103.424839"><ele>1124.5822</ele><time>2026-05-30T22:02:27.000Z</time></trkpt>
        <trkpt lat="29.761888" lon="103.424783"><ele>1125.6515</ele><time>2026-05-30T22:02:28.000Z</time></trkpt>
        <trkpt lat="29.761841" lon="103.424743"><ele>1126.2639</ele><time>2026-05-30T22:02:29.000Z</time></trkpt>
        <trkpt lat="29.761801" lon="103.424692"><ele>1126.5521</ele><time>2026-05-30T22:02:30.000Z</time></trkpt>
        <trkpt lat="29.761752" lon="103.424652"><ele>1126.5485</ele><time>2026-05-30T22:02:31.000Z</time></trkpt>
        <trkpt lat="29.761703" lon="103.424603"><ele>1126.5876</ele><time>2026-05-30T22:02:32.000Z</time></trkpt>
        <trkpt lat="29.76165" lon="103.424547"><ele>1126.5002</ele><time>2026-05-30T22:02:33.000Z</time></trkpt>
        <trkpt lat="29.7616" lon="103.424491"><ele>1126.1691</ele><time>2026-05-30T22:02:34.000Z</time></trkpt>
        <trkpt lat="29.761548" lon="103.424453"><ele>1126.4061</ele><time>2026-05-30T22:02:35.000Z</time></trkpt>
        <trkpt lat="29.761474" lon="103.424427"><ele>1126.9131</ele><time>2026-05-30T22:02:36.000Z</time></trkpt>
        <trkpt lat="29.761386" lon="103.424416"><ele>1128.4137</ele><time>2026-05-30T22:02:37.000Z</time></trkpt>
        <trkpt lat="29.7613" lon="103.424407"><ele>1129.3136</ele><time>2026-05-30T22:02:38.000Z</time></trkpt>
        <trkpt lat="29.761218" lon="103.424391"><ele>1130.0483</ele><time>2026-05-30T22:02:39.000Z</time></trkpt>
        <trkpt lat="29.761139" lon="103.424373"><ele>1130.6699</ele><time>2026-05-30T22:02:40.000Z</time></trkpt>
        <trkpt lat="29.761071" lon="103.424354"><ele>1131.1472</ele><time>2026-05-30T22:02:41.000Z</time></trkpt>
        <trkpt lat="29.761018" lon="103.424349"><ele>1131.2985</ele><time>2026-05-30T22:02:42.000Z</time></trkpt>
        <trkpt lat="29.760959" lon="103.424347"><ele>1130.9263</ele><time>2026-05-30T22:02:44.000Z</time></trkpt>
        <trkpt lat="29.760897" lon="103.424387"><ele>1132.3477</ele><time>2026-05-30T22:02:48.000Z</time></trkpt>
        <trkpt lat="29.760853" lon="103.424407"><ele>1132.8936</ele><time>2026-05-30T22:02:49.000Z</time></trkpt>
        <trkpt lat="29.760803" lon="103.424448"><ele>1134.1271</ele><time>2026-05-30T22:02:50.000Z</time></trkpt>
        <trkpt lat="29.760748" lon="103.424484"><ele>1136.14</ele><time>2026-05-30T22:02:51.000Z</time></trkpt>
        <trkpt lat="29.760696" lon="103.42452"><ele>1137.4147</ele><time>2026-05-30T22:02:52.000Z</time></trkpt>
        <trkpt lat="29.760619" lon="103.42457"><ele>1139.5166</ele><time>2026-05-30T22:02:54.000Z</time></trkpt>
        <trkpt lat="29.760576" lon="103.424599"><ele>1140.3434</ele><time>2026-05-30T22:02:55.000Z</time></trkpt>
        <trkpt lat="29.760531" lon="103.424633"><ele>1141.1174</ele><time>2026-05-30T22:02:56.000Z</time></trkpt>
        <trkpt lat="29.760508" lon="103.424686"><ele>1142.2677</ele><time>2026-05-30T22:02:57.000Z</time></trkpt>
        <trkpt lat="29.76046" lon="103.424763"><ele>1143.5641</ele><time>2026-05-30T22:02:58.000Z</time></trkpt>
        <trkpt lat="29.760413" lon="103.424826"><ele>1144.4288</ele><time>2026-05-30T22:02:59.000Z</time></trkpt>
        <trkpt lat="29.760367" lon="103.424887"><ele>1146.0078</ele><time>2026-05-30T22:03:00.000Z</time></trkpt>
        <trkpt lat="29.760319" lon="103.424946"><ele>1146.9155</ele><time>2026-05-30T22:03:01.000Z</time></trkpt>
        <trkpt lat="29.760268" lon="103.424998"><ele>1148.3557</ele><time>2026-05-30T22:03:02.000Z</time></trkpt>
        <trkpt lat="29.760206" lon="103.425051"><ele>1149.8213</ele><time>2026-05-30T22:03:03.000Z</time></trkpt>
        <trkpt lat="29.76015" lon="103.425096"><ele>1151.5302</ele><time>2026-05-30T22:03:04.000Z</time></trkpt>
        <trkpt lat="29.760091" lon="103.425131"><ele>1152.7242</ele><time>2026-05-30T22:03:05.000Z</time></trkpt>
        <trkpt lat="29.760035" lon="103.425164"><ele>1153.985</ele><time>2026-05-30T22:03:06.000Z</time></trkpt>
        <trkpt lat="29.759989" lon="103.425199"><ele>1154.9849</ele><time>2026-05-30T22:03:07.000Z</time></trkpt>
        <trkpt lat="29.759949" lon="103.425238"><ele>1155.9435</ele><time>2026-05-30T22:03:08.000Z</time></trkpt>
        <trkpt lat="29.759894" lon="103.425314"><ele>1157.7108</ele><time>2026-05-30T22:03:10.000Z</time></trkpt>
      </trkseg>
  </trk>
</gpx>